Observation data for Coyanosa on 02/12/2018      Previous  Date  Next       Current Mesonet Observations  Soil Data  Daily Summary Page  Observations in Plain Language
KCO1 120600Z 12006KT 00/M12 A3024 RMK A01 T00031120  RH  039%=      5-min Rain = 0
KCO1 120601Z 11005KT 00/M12 A3024 RMK A01 T00021120  RH  039%=      5-min Rain = 0
KCO1 120602Z 11004KT 00/M12 A3024 RMK A01 T00021120  RH  039%=      5-min Rain = 0
KCO1 120603Z 09005KT 00/M12 A3024 RMK A01 T00011120  RH  039%=      5-min Rain = 0
KCO1 120604Z 09004KT 00/M12 A3024 RMK A01 T00011120  RH  040%=      5-min Rain = 0
KCO1 120605Z 07003KT 00/M12 A3024 RMK A01 T00011120  RH  040%=      5-min Rain = 0
KCO1 120606Z 08002KT 00/M12 A3024 RMK A01 T00011119  RH  040%=      5-min Rain = 0
KCO1 120607Z 08001KT 00/12 A3024 RMK A01 T00-00-119  RH  040%=      5-min Rain = 0
KCO1 120608Z 10002KT M00/M12 A3024 RMK A01 T10021119  RH  041%=      5-min Rain = 0
KCO1 120609Z 10002KT M00/M12 A3024 RMK A01 T10031119  RH  041%=      5-min Rain = 0
KCO1 120610Z 10003KT M00/M12 A3024 RMK A01 T10031119  RH  041%=      5-min Rain = 0
KCO1 120611Z 10003KT M00/M12 A3024 RMK A01 T10041119  RH  042%=      5-min Rain = 0
KCO1 120612Z 10002KT M01/M12 A3024 RMK A01 T10051119  RH  042%=      5-min Rain = 0
KCO1 120613Z 10002KT M01/M12 A3024 RMK A01 T10061120  RH  042%=      5-min Rain = 0
KCO1 120614Z 10002KT M01/M12 A3024 RMK A01 T10061119  RH  042%=      5-min Rain = 0
KCO1 120615Z 09002KT M01/M12 A3024 RMK A01 T10071119  RH  042%=      5-min Rain = 0
KCO1 120616Z 09003KT M01/M12 A3024 RMK A01 T10071119  RH  043%=      5-min Rain = 0
KCO1 120617Z 09003KT M01/M12 A3024 RMK A01 T10071118  RH  043%=      5-min Rain = 0
KCO1 120618Z 09003KT M01/M12 A3024 RMK A01 T10081119  RH  043%=      5-min Rain = 0
KCO1 120619Z 09003KT M01/M12 A3024 RMK A01 T10091119  RH  043%=      5-min Rain = 0
KCO1 120620Z 10003KT M01/M12 A3024 RMK A01 T10091119  RH  043%=      5-min Rain = 0
KCO1 120621Z 10003KT M01/M12 A3024 RMK A01 T10091119  RH  043%=      5-min Rain = 0
KCO1 120622Z 11003KT M01/M12 A3024 RMK A01 T10091119  RH  043%=      5-min Rain = 0
KCO1 120623Z 11003KT M01/M12 A3024 RMK A01 T10091118  RH  043%=      5-min Rain = 0
KCO1 120624Z 11004KT M01/M12 A3024 RMK A01 T10091118  RH  043%=      5-min Rain = 0
KCO1 120625Z 12004KT M01/M12 A3024 RMK A01 T10091118  RH  043%=      5-min Rain = 0
KCO1 120626Z 12005KT M01/M12 A3024 RMK A01 T10081118  RH  043%=      5-min Rain = 0
KCO1 120627Z 12004KT M01/M12 A3024 RMK A01 T10081119  RH  043%=      5-min Rain = 0
KCO1 120628Z 12004KT M01/M12 A3024 RMK A01 T10071119  RH  043%=      5-min Rain = 0
KCO1 120629Z 12004KT M01/M12 A3024 RMK A01 T10071119  RH  043%=      5-min Rain = 0
KCO1 120630Z 12004KT M01/M12 A3024 RMK A01 T10071118  RH  043%=      5-min Rain = 0
KCO1 120631Z 13005KT M01/M12 A3024 RMK A01 T10061118  RH  043%=      5-min Rain = 0
KCO1 120632Z 13005KT M01/M12 A3024 RMK A01 T10061118  RH  043%=      5-min Rain = 0
KCO1 120633Z 13006KT M01/M12 A3024 RMK A01 T10051118  RH  042%=      5-min Rain = 0
KCO1 120634Z 13005KT M01/M12 A3024 RMK A01 T10051118  RH  042%=      5-min Rain = 0
KCO1 120635Z 13005KT M01/M12 A3024 RMK A01 T10051118  RH  042%=      5-min Rain = 0
KCO1 120636Z 13005KT M00/M12 A3025 RMK A01 T10041118  RH  042%=      5-min Rain = 0
KCO1 120637Z 12005KT M00/M12 A3025 RMK A01 T10041119  RH  042%=      5-min Rain = 0
KCO1 120638Z 12005KT M01/M12 A3025 RMK A01 T10051119  RH  042%=      5-min Rain = 0
KCO1 120639Z 11005KT M01/M12 A3025 RMK A01 T10051119  RH  042%=      5-min Rain = 0
KCO1 120640Z 12006KT M01/M12 A3025 RMK A01 T10051119  RH  042%=      5-min Rain = 0
KCO1 120641Z 12006KT M01/M12 A3025 RMK A01 T10051119  RH  042%=      5-min Rain = 0
KCO1 120642Z 13006KT M01/M12 A3025 RMK A01 T10051119  RH  042%=      5-min Rain = 0
KCO1 120643Z 13006KT M00/M12 A3025 RMK A01 T10041119  RH  042%=      5-min Rain = 0
KCO1 120644Z 13006KT M00/M12 A3025 RMK A01 T10041119  RH  042%=      5-min Rain = 0
KCO1 120645Z 13006KT M00/M12 A3025 RMK A01 T10041119  RH  041%=      5-min Rain = 0
KCO1 120646Z 13006KT M00/M12 A3025 RMK A01 T10041120  RH  041%=      5-min Rain = 0
KCO1 120647Z 13006KT M01/M12 A3025 RMK A01 T10051120  RH  041%=      5-min Rain = 0
KCO1 120648Z 13006KT M01/M12 A3025 RMK A01 T10051120  RH  041%=      5-min Rain = 0
KCO1 120649Z 13006KT M01/M12 A3025 RMK A01 T10051120  RH  041%=      5-min Rain = 0
KCO1 120650Z 13006KT M01/M12 A3025 RMK A01 T10061121  RH  041%=      5-min Rain = 0
KCO1 120651Z 13005KT M01/M12 A3025 RMK A01 T10051120  RH  041%=      5-min Rain = 0
KCO1 120652Z 13005KT M01/M12 A3025 RMK A01 T10061121  RH  041%=      5-min Rain = 0
KCO1 120653Z 13005KT M01/M12 A3025 RMK A01 T10061121  RH  042%=      5-min Rain = 0
KCO1 120654Z 13005KT M01/M12 A3025 RMK A01 T10071121  RH  042%=      5-min Rain = 0
KCO1 120655Z 13005KT M01/M12 A3025 RMK A01 T10071121  RH  042%=      5-min Rain = 0
KCO1 120656Z 13005KT M01/M12 A3025 RMK A01 T10071121  RH  042%=      5-min Rain = 0
KCO1 120657Z 13005KT M01/M12 A3025 RMK A01 T10081122  RH  042%=      5-min Rain = 0
KCO1 120658Z 13005KT M01/M12 A3025 RMK A01 T10091122  RH  042%=      5-min Rain = 0
KCO1 120659Z 13006KT M01/M12 A3025 RMK A01 T10091122  RH  042%=      5-min Rain = 0
KCO1 120700Z 13006KT M01/M12 A3025 RMK A01 T10101122  RH  042%=      5-min Rain = 0
KCO1 120701Z 13006KT M01/M12 A3025 RMK A01 T10101122  RH  042%=      5-min Rain = 0
KCO1 120702Z 13006KT M01/M12 A3025 RMK A01 T10101122  RH  042%=      5-min Rain = 0
KCO1 120703Z 13006KT M01/M12 A3025 RMK A01 T10101122  RH  042%=      5-min Rain = 0
KCO1 120704Z 13005KT M01/M12 A3025 RMK A01 T10111122  RH  043%=      5-min Rain = 0
KCO1 120705Z 13005KT M01/M12 A3025 RMK A01 T10111122  RH  043%=      5-min Rain = 0
KCO1 120706Z 13004KT M01/M12 A3025 RMK A01 T10111122  RH  043%=      5-min Rain = 0
KCO1 120707Z 13004KT M01/M12 A3025 RMK A01 T10111122  RH  043%=      5-min Rain = 0
KCO1 120708Z 13004KT M01/M12 A3025 RMK A01 T10111122  RH  043%=      5-min Rain = 0
KCO1 120709Z 12004KT M01/M12 A3025 RMK A01 T10111122  RH  043%=      5-min Rain = 0
KCO1 120710Z 12004KT M01/M12 A3025 RMK A01 T10111122  RH  043%=      5-min Rain = 0
KCO1 120711Z 12004KT M01/M12 A3025 RMK A01 T10111122  RH  043%=      5-min Rain = 0
KCO1 120712Z 12005KT M01/M12 A3025 RMK A01 T10111123  RH  043%=      5-min Rain = 0
KCO1 120713Z 12005KT M01/M12 A3025 RMK A01 T10121123  RH  043%=      5-min Rain = 0
KCO1 120714Z 12004KT M01/M12 A3025 RMK A01 T10121123  RH  043%=      5-min Rain = 0
KCO1 120715Z 11004KT M01/M12 A3025 RMK A01 T10131123  RH  043%=      5-min Rain = 0
KCO1 120716Z 10003KT M01/M12 A3025 RMK A01 T10131123  RH  043%=      5-min Rain = 0
KCO1 120717Z 10003KT M01/M12 A3025 RMK A01 T10131123  RH  043%=      5-min Rain = 0
KCO1 120718Z 10003KT M01/M12 A3026 RMK A01 T10131122  RH  043%=      5-min Rain = 0
KCO1 120719Z 10004KT M01/M12 A3026 RMK A01 T10131122  RH  043%=      5-min Rain = 0
KCO1 120720Z 10004KT M01/M12 A3026 RMK A01 T10141122  RH  043%=      5-min Rain = 0
KCO1 120721Z 10004KT M01/M12 A3025 RMK A01 T10141122  RH  043%=      5-min Rain = 0
KCO1 120722Z 10004KT M01/M12 A3025 RMK A01 T10141122  RH  044%=      5-min Rain = 0
KCO1 120723Z 10004KT M01/M12 A3025 RMK A01 T10141122  RH  044%=      5-min Rain = 0
KCO1 120724Z 09003KT M01/M12 A3025 RMK A01 T10141121  RH  044%=      5-min Rain = 0
KCO1 120725Z 09004KT M01/M12 A3025 RMK A01 T10141121  RH  044%=      5-min Rain = 0
KCO1 120726Z 09004KT M01/M12 A3025 RMK A01 T10141121  RH  044%=      5-min Rain = 0
KCO1 120727Z 10003KT M01/M12 A3025 RMK A01 T10131120  RH  044%=      5-min Rain = 0
KCO1 120728Z 10003KT M01/M12 A3025 RMK A01 T10131120  RH  044%=      5-min Rain = 0
KCO1 120729Z 08003KT M01/M12 A3025 RMK A01 T10131120  RH  044%=      5-min Rain = 0
KCO1 120730Z 07003KT M01/M12 A3025 RMK A01 T10131120  RH  044%=      5-min Rain = 0
KCO1 120731Z 07004KT M01/M12 A3025 RMK A01 T10131120  RH  044%=      5-min Rain = 0
KCO1 120732Z 08004KT M01/M12 A3025 RMK A01 T10131120  RH  044%=      5-min Rain = 0
KCO1 120733Z 08004KT M01/M12 A3025 RMK A01 T10131119  RH  044%=      5-min Rain = 0
KCO1 120734Z 08003KT M01/M12 A3025 RMK A01 T10131119  RH  044%=      5-min Rain = 0
KCO1 120735Z 07003KT M01/M12 A3025 RMK A01 T10131119  RH  044%=      5-min Rain = 0
KCO1 120736Z 07004KT M01/M12 A3025 RMK A01 T10131119  RH  044%=      5-min Rain = 0
KCO1 120737Z 08003KT M01/M12 A3025 RMK A01 T10131119  RH  044%=      5-min Rain = 0
KCO1 120738Z 08002KT M01/M12 A3025 RMK A01 T10131119  RH  044%=      5-min Rain = 0
KCO1 120739Z 08003KT M01/M12 A3025 RMK A01 T10131119  RH  045%=      5-min Rain = 0
KCO1 120740Z 08003KT M01/M12 A3025 RMK A01 T10131118  RH  045%=      5-min Rain = 0
KCO1 120741Z 08003KT M01/M12 A3025 RMK A01 T10131118  RH  045%=      5-min Rain = 0
KCO1 120742Z 07003KT M01/M12 A3025 RMK A01 T10131117  RH  045%=      5-min Rain = 0
KCO1 120743Z 07003KT M01/M12 A3025 RMK A01 T10141117  RH  045%=      5-min Rain = 0
KCO1 120744Z 06003KT M01/M12 A3025 RMK A01 T10141117  RH  046%=      5-min Rain = 0
KCO1 120745Z 07003KT M02/M12 A3025 RMK A01 T10151117  RH  046%=      5-min Rain = 0
KCO1 120746Z 07003KT M02/M12 A3025 RMK A01 T10151118  RH  046%=      5-min Rain = 0
KCO1 120747Z 06004KT M02/M12 A3025 RMK A01 T10161118  RH  046%=      5-min Rain = 0
KCO1 120748Z 06004KT M02/M12 A3025 RMK A01 T10171119  RH  046%=      5-min Rain = 0
KCO1 120749Z 05003KT M02/M12 A3025 RMK A01 T10181118  RH  046%=      5-min Rain = 0
KCO1 120750Z 06003KT M02/M12 A3025 RMK A01 T10191118  RH  046%=      5-min Rain = 0
KCO1 120751Z 05004KT M02/M12 A3025 RMK A01 T10191119  RH  046%=      5-min Rain = 0
KCO1 120752Z 05004KT M02/M12 A3025 RMK A01 T10201119  RH  047%=      5-min Rain = 0
KCO1 120753Z 05004KT M02/M12 A3025 RMK A01 T10201119  RH  047%=      5-min Rain = 0
KCO1 120754Z 05004KT M02/M12 A3025 RMK A01 T10201119  RH  047%=      5-min Rain = 0
KCO1 120755Z 05004KT M02/M12 A3025 RMK A01 T10201119  RH  047%=      5-min Rain = 0
KCO1 120756Z 05004KT M02/M12 A3025 RMK A01 T10201119  RH  047%=      5-min Rain = 0
KCO1 120757Z 05004KT M02/M12 A3025 RMK A01 T10201119  RH  047%=      5-min Rain = 0
KCO1 120758Z 05004KT M02/M12 A3025 RMK A01 T10191118  RH  047%=      5-min Rain = 0
KCO1 120759Z 06005KT M02/M12 A3025 RMK A01 T10191118  RH  047%=      5-min Rain = 0
KCO1 120800Z 06004KT M02/M12 A3025 RMK A01 T10191119  RH  047%=      5-min Rain = 0
KCO1 120801Z 07005KT M02/M12 A3025 RMK A01 T10191118  RH  047%=      5-min Rain = 0
KCO1 120802Z 08005KT M02/M12 A3025 RMK A01 T10191118  RH  047%=      5-min Rain = 0
KCO1 120803Z 08005KT M02/M12 A3025 RMK A01 T10191118  RH  047%=      5-min Rain = 0
KCO1 120804Z 08005KT M02/M12 A3025 RMK A01 T10191118  RH  047%=      5-min Rain = 0
KCO1 120805Z 08005KT M02/M12 A3025 RMK A01 T10181118  RH  047%=      5-min Rain = 0
KCO1 120806Z 08004KT M02/M12 A3025 RMK A01 T10181118  RH  046%=      5-min Rain = 0
KCO1 120807Z 08005KT M02/M12 A3025 RMK A01 T10171118  RH  046%=      5-min Rain = 0
KCO1 120808Z 07004KT M02/M12 A3025 RMK A01 T10171118  RH  046%=      5-min Rain = 0
KCO1 120809Z 08004KT M02/M12 A3025 RMK A01 T10171119  RH  046%=      5-min Rain = 0
KCO1 120810Z 08004KT M02/M12 A3025 RMK A01 T10171119  RH  046%=      5-min Rain = 0
KCO1 120811Z 08005KT M02/M12 A3025 RMK A01 T10161119  RH  046%=      5-min Rain = 0
KCO1 120812Z 08005KT M02/M12 A3025 RMK A01 T10171119  RH  046%=      5-min Rain = 0
KCO1 120813Z 09005KT M02/M12 A3025 RMK A01 T10171119  RH  046%=      5-min Rain = 0
KCO1 120814Z 09005KT M02/M12 A3024 RMK A01 T10171119  RH  046%=      5-min Rain = 0
KCO1 120815Z 09005KT M02/M12 A3024 RMK A01 T10181119  RH  046%=      5-min Rain = 0
KCO1 120816Z 10006KT M02/M12 A3024 RMK A01 T10171119  RH  046%=      5-min Rain = 0
KCO1 120817Z 10005KT M02/M12 A3024 RMK A01 T10171118  RH  046%=      5-min Rain = 0
KCO1 120818Z 10006KT M02/M12 A3024 RMK A01 T10181119  RH  046%=      5-min Rain = 0
KCO1 120819Z 10005KT M02/M12 A3024 RMK A01 T10181119  RH  046%=      5-min Rain = 0
KCO1 120820Z 10005KT M02/M12 A3024 RMK A01 T10181119  RH  046%=      5-min Rain = 0
KCO1 120821Z 10005KT M02/M12 A3024 RMK A01 T10181119  RH  046%=      5-min Rain = 0
KCO1 120822Z 09004KT M02/M12 A3024 RMK A01 T10171118  RH  046%=      5-min Rain = 0
KCO1 120823Z 09004KT M02/M12 A3024 RMK A01 T10161118  RH  046%=      5-min Rain = 0
KCO1 120824Z 09004KT M02/M12 A3025 RMK A01 T10161118  RH  046%=      5-min Rain = 0
KCO1 120825Z 09003KT M02/M12 A3025 RMK A01 T10161118  RH  045%=      5-min Rain = 0
KCO1 120826Z 09003KT M02/M12 A3025 RMK A01 T10151119  RH  045%=      5-min Rain = 0
KCO1 120827Z 09003KT M02/M12 A3025 RMK A01 T10151119  RH  045%=      5-min Rain = 0
KCO1 120828Z 09003KT M02/M12 A3025 RMK A01 T10151119  RH  045%=      5-min Rain = 0
KCO1 120829Z 10003KT M02/M12 A3025 RMK A01 T10151119  RH  045%=      5-min Rain = 0
KCO1 120830Z 09003KT M02/M12 A3025 RMK A01 T10151119  RH  045%=      5-min Rain = 0
KCO1 120831Z 09004KT M02/M12 A3025 RMK A01 T10151119  RH  045%=      5-min Rain = 0
KCO1 120832Z 09004KT M02/M12 A3024 RMK A01 T10151119  RH  045%=      5-min Rain = 0
KCO1 120833Z 09004KT M02/M12 A3024 RMK A01 T10151119  RH  045%=      5-min Rain = 0
KCO1 120834Z 09005KT M02/M12 A3024 RMK A01 T10151119  RH  045%=      5-min Rain = 0
KCO1 120835Z 08005KT M02/M12 A3024 RMK A01 T10151118  RH  045%=      5-min Rain = 0
KCO1 120836Z 08005KT M02/M12 A3024 RMK A01 T10151118  RH  045%=      5-min Rain = 0
KCO1 120837Z 09004KT M01/M12 A3024 RMK A01 T10141118  RH  045%=      5-min Rain = 0
KCO1 120838Z 09004KT M01/M12 A3024 RMK A01 T10141118  RH  045%=      5-min Rain = 0
KCO1 120839Z 09004KT M01/M12 A3024 RMK A01 T10141118  RH  045%=      5-min Rain = 0
KCO1 120840Z 09004KT M01/M12 A3024 RMK A01 T10141118  RH  045%=      5-min Rain = 0
KCO1 120841Z 09004KT M01/M12 A3024 RMK A01 T10141118  RH  045%=      5-min Rain = 0
KCO1 120842Z 08005KT M01/M12 A3024 RMK A01 T10141118  RH  045%=      5-min Rain = 0
KCO1 120843Z 08005KT M01/M12 A3024 RMK A01 T10131117  RH  045%=      5-min Rain = 0
KCO1 120844Z 08005KT M01/M12 A3024 RMK A01 T10131117  RH  045%=      5-min Rain = 0
KCO1 120845Z 08004KT M01/M12 A3024 RMK A01 T10131117  RH  045%=      5-min Rain = 0
KCO1 120846Z 08004KT M01/M12 A3024 RMK A01 T10131117  RH  045%=      5-min Rain = 0
KCO1 120847Z 07004KT M01/M12 A3024 RMK A01 T10131117  RH  045%=      5-min Rain = 0
KCO1 120848Z 07004KT M01/M12 A3024 RMK A01 T10121117  RH  045%=      5-min Rain = 0
KCO1 120849Z 06004KT M01/M12 A3024 RMK A01 T10111117  RH  045%=      5-min Rain = 0
KCO1 120850Z 05003KT M01/M12 A3024 RMK A01 T10111116  RH  045%=      5-min Rain = 0
KCO1 120851Z 04003KT M01/M12 A3024 RMK A01 T10111117  RH  045%=      5-min Rain = 0
KCO1 120852Z 04004KT M01/M12 A3024 RMK A01 T10111116  RH  045%=      5-min Rain = 0
KCO1 120853Z 04004KT M01/M12 A3024 RMK A01 T10111116  RH  045%=      5-min Rain = 0
KCO1 120854Z 05004KT M01/M12 A3023 RMK A01 T10111116  RH  045%=      5-min Rain = 0
KCO1 120855Z 06004KT M01/M12 A3023 RMK A01 T10111115  RH  045%=      5-min Rain = 0
KCO1 120856Z 06005KT M01/M12 A3023 RMK A01 T10121115  RH  045%=      5-min Rain = 0
KCO1 120857Z 07005KT M01/M12 A3023 RMK A01 T10121116  RH  045%=      5-min Rain = 0
KCO1 120858Z 07005KT M01/M12 A3024 RMK A01 T10121115  RH  045%=      5-min Rain = 0
KCO1 120859Z 08004KT M01/M12 A3024 RMK A01 T10111115  RH  045%=      5-min Rain = 0
KCO1 120900Z 08004KT M01/M12 A3024 RMK A01 T10111115  RH  045%=      5-min Rain = 0
KCO1 120901Z 09003KT M01/M12 A3024 RMK A01 T10101115  RH  045%=      5-min Rain = 0
KCO1 120902Z 09003KT M01/M12 A3024 RMK A01 T10101115  RH  045%=      5-min Rain = 0
KCO1 120903Z 08004KT M01/M12 A3024 RMK A01 T10101115  RH  045%=      5-min Rain = 0
KCO1 120904Z 07004KT M01/M12 A3024 RMK A01 T10101115  RH  045%=      5-min Rain = 0
KCO1 120905Z 07005KT M01/M12 A3023 RMK A01 T10111115  RH  045%=      5-min Rain = 0
KCO1 120906Z 07005KT M01/M12 A3023 RMK A01 T10111115  RH  045%=      5-min Rain = 0
KCO1 120907Z 07004KT M01/M11 A3023 RMK A01 T10111114  RH  045%=      5-min Rain = 0
KCO1 120908Z 07004KT M01/M11 A3024 RMK A01 T10111114  RH  045%=      5-min Rain = 0
KCO1 120909Z 07003KT M01/M12 A3024 RMK A01 T10111115  RH  045%=      5-min Rain = 0
KCO1 120910Z 08003KT M01/M11 A3024 RMK A01 T10111114  RH  045%=      5-min Rain = 0
KCO1 120911Z 09004KT M01/M12 A3024 RMK A01 T10121115  RH  045%=      5-min Rain = 0
KCO1 120912Z 08004KT M01/M12 A3024 RMK A01 T10121115  RH  046%=      5-min Rain = 0
KCO1 120913Z 08005KT M01/M12 A3024 RMK A01 T10121115  RH  046%=      5-min Rain = 0
KCO1 120914Z 07005KT M01/M12 A3024 RMK A01 T10121115  RH  046%=      5-min Rain = 0
KCO1 120915Z 07005KT M01/M12 A3024 RMK A01 T10131115  RH  046%=      5-min Rain = 0
KCO1 120916Z 07004KT M01/M12 A3024 RMK A01 T10131115  RH  046%=      5-min Rain = 0
KCO1 120917Z 07004KT M01/M12 A3024 RMK A01 T10131115  RH  046%=      5-min Rain = 0
KCO1 120918Z 08004KT M01/M12 A3024 RMK A01 T10131115  RH  046%=      5-min Rain = 0
KCO1 120919Z 08004KT M01/M12 A3025 RMK A01 T10131115  RH  046%=      5-min Rain = 0
KCO1 120920Z 09003KT M01/M11 A3025 RMK A01 T10131114  RH  046%=      5-min Rain = 0
KCO1 120921Z 10003KT M01/M11 A3025 RMK A01 T10141114  RH  046%=      5-min Rain = 0
KCO1 120922Z 10003KT M01/M11 A3025 RMK A01 T10141114  RH  046%=      5-min Rain = 0
KCO1 120923Z 10004KT M01/M11 A3025 RMK A01 T10141114  RH  046%=      5-min Rain = 0
KCO1 120924Z 10004KT M02/M12 A3025 RMK A01 T10151115  RH  047%=      5-min Rain = 0
KCO1 120925Z 10004KT M02/M12 A3024 RMK A01 T10151115  RH  047%=      5-min Rain = 0
KCO1 120926Z 09005KT M02/M11 A3024 RMK A01 T10151114  RH  047%=      5-min Rain = 0
KCO1 120927Z 09005KT M02/M11 A3024 RMK A01 T10151114  RH  047%=      5-min Rain = 0
KCO1 120928Z 08005KT M02/M11 A3024 RMK A01 T10161114  RH  047%=      5-min Rain = 0
KCO1 120929Z 08005KT M02/M11 A3024 RMK A01 T10151114  RH  047%=      5-min Rain = 0
KCO1 120930Z 08004KT M02/M11 A3024 RMK A01 T10151114  RH  047%=      5-min Rain = 0
KCO1 120931Z 08005KT M02/M11 A3024 RMK A01 T10151114  RH  047%=      5-min Rain = 0
KCO1 120932Z 07005KT M01/M11 A3024 RMK A01 T10141114  RH  046%=      5-min Rain = 0
KCO1 120933Z 08004KT M01/M11 A3024 RMK A01 T10131114  RH  046%=      5-min Rain = 0
KCO1 120934Z 08003KT M01/M11 A3024 RMK A01 T10131114  RH  046%=      5-min Rain = 0
KCO1 120935Z 08003KT M01/M11 A3025 RMK A01 T10131114  RH  046%=      5-min Rain = 0
KCO1 120936Z 08004KT M01/M11 A3025 RMK A01 T10131114  RH  046%=      5-min Rain = 0
KCO1 120937Z 08004KT M01/M12 A3025 RMK A01 T10121115  RH  046%=      5-min Rain = 0
KCO1 120938Z 07004KT M01/M12 A3024 RMK A01 T10121115  RH  046%=      5-min Rain = 0
KCO1 120939Z 07004KT M01/M12 A3024 RMK A01 T10121115  RH  046%=      5-min Rain = 0
KCO1 120940Z 07004KT M01/M12 A3024 RMK A01 T10121115  RH  046%=      5-min Rain = 0
KCO1 120941Z 07004KT M01/M12 A3024 RMK A01 T10121115  RH  046%=      5-min Rain = 0
KCO1 120942Z 07004KT M01/M12 A3024 RMK A01 T10131115  RH  046%=      5-min Rain = 0
KCO1 120943Z 07004KT M01/M12 A3024 RMK A01 T10121115  RH  046%=      5-min Rain = 0
KCO1 120944Z 07004KT M01/M12 A3024 RMK A01 T10121115  RH  046%=      5-min Rain = 0
KCO1 120945Z 07004KT M01/M11 A3024 RMK A01 T10121114  RH  046%=      5-min Rain = 0
KCO1 120946Z 08004KT M01/M11 A3024 RMK A01 T10121114  RH  046%=      5-min Rain = 0
KCO1 120947Z 08005KT M01/M11 A3024 RMK A01 T10121114  RH  046%=      5-min Rain = 0
KCO1 120948Z 08005KT M01/M11 A3024 RMK A01 T10121114  RH  046%=      5-min Rain = 0
KCO1 120949Z 08006KT M01/M11 A3023 RMK A01 T10111114  RH  046%=      5-min Rain = 0
KCO1 120950Z 08006KT M01/M11 A3023 RMK A01 T10111114  RH  046%=      5-min Rain = 0
KCO1 120951Z 08005KT M01/M11 A3023 RMK A01 T10101113  RH  046%=      5-min Rain = 0
KCO1 120952Z 08005KT M01/M11 A3023 RMK A01 T10101113  RH  046%=      5-min Rain = 0
KCO1 120953Z 08003KT M01/M11 A3024 RMK A01 T10101113  RH  046%=      5-min Rain = 0
KCO1 120954Z 08004KT M01/M11 A3024 RMK A01 T10101113  RH  046%=      5-min Rain = 0
KCO1 120955Z 07003KT M01/M11 A3024 RMK A01 T10101112  RH  046%=      5-min Rain = 0
KCO1 120956Z 06003KT M01/M11 A3024 RMK A01 T10091112  RH  046%=      5-min Rain = 0
KCO1 120957Z 06004KT M01/M11 A3024 RMK A01 T10091112  RH  046%=      5-min Rain = 0
KCO1 120958Z 06004KT M01/M11 A3024 RMK A01 T10091111  RH  046%=      5-min Rain = 0
KCO1 120959Z 06005KT M01/M11 A3024 RMK A01 T10091109  RH  046%=      5-min Rain = 0
KCO1 121000Z 08005KT M01/M11 A3024 RMK A01 T10081106  RH  047%=      5-min Rain = 0
KCO1 121001Z 08006KT M01/M11 A3024 RMK A01 T10081105  RH  048%=      5-min Rain = 0
KCO1 121002Z 08006KT M01/M10 A3024 RMK A01 T10081104  RH  048%=      5-min Rain = 0
KCO1 121003Z 09006KT M01/M10 A3024 RMK A01 T10081104  RH  048%=      5-min Rain = 0
KCO1 121004Z 10005KT M01/M10 A3024 RMK A01 T10081104  RH  048%=      5-min Rain = 0
KCO1 121005Z 10005KT M01/M10 A3024 RMK A01 T10081104  RH  048%=      5-min Rain = 0
KCO1 121006Z 11005KT M01/M10 A3025 RMK A01 T10071104  RH  048%=      5-min Rain = 0
KCO1 121007Z 11005KT M01/M11 A3025 RMK A01 T10071105  RH  048%=      5-min Rain = 0
KCO1 121008Z 10005KT M01/M11 A3025 RMK A01 T10071105  RH  047%=      5-min Rain = 0
KCO1 121009Z 10005KT M01/M11 A3024 RMK A01 T10071105  RH  047%=      5-min Rain = 0
KCO1 121010Z 09004KT M01/M11 A3024 RMK A01 T10071105  RH  047%=      5-min Rain = 0
KCO1 121011Z 09004KT M01/M10 A3025 RMK A01 T10071104  RH  048%=      5-min Rain = 0
KCO1 121012Z 10003KT M01/M10 A3025 RMK A01 T10071104  RH  048%=      5-min Rain = 0
KCO1 121013Z 10004KT M01/M10 A3025 RMK A01 T10071104  RH  048%=      5-min Rain = 0
KCO1 121014Z 09005KT M01/M10 A3025 RMK A01 T10071104  RH  048%=      5-min Rain = 0
KCO1 121015Z 09005KT M01/M10 A3025 RMK A01 T10071104  RH  048%=      5-min Rain = 0
KCO1 121016Z 09005KT M01/M10 A3025 RMK A01 T10071104  RH  048%=      5-min Rain = 0
KCO1 121017Z 09006KT M01/M10 A3025 RMK A01 T10071103  RH  048%=      5-min Rain = 0
KCO1 121018Z 09006KT M01/M10 A3024 RMK A01 T10061102  RH  048%=      5-min Rain = 0
KCO1 121019Z 09006KT M01/M10 A3024 RMK A01 T10061101  RH  048%=      5-min Rain = 0
KCO1 121020Z 08007KT M01/M10 A3024 RMK A01 T10051101  RH  048%=      5-min Rain = 0
KCO1 121021Z 08007KT M01/M10 A3024 RMK A01 T10051102  RH  048%=      5-min Rain = 0
KCO1 121022Z 07007KT M00/M10 A3023 RMK A01 T10041102  RH  047%=      5-min Rain = 0
KCO1 121023Z 07006KT M00/M10 A3023 RMK A01 T10031103  RH  047%=      5-min Rain = 0
KCO1 121024Z 08006KT M00/M10 A3024 RMK A01 T10031104  RH  047%=      5-min Rain = 0
KCO1 121025Z 09005KT M00/M11 A3024 RMK A01 T10021105  RH  046%=      5-min Rain = 0
KCO1 121026Z 08005KT M00/M11 A3024 RMK A01 T10021105  RH  046%=      5-min Rain = 0
KCO1 121027Z 08005KT M00/M11 A3024 RMK A01 T10021106  RH  045%=      5-min Rain = 0
KCO1 121028Z 08005KT M00/M11 A3024 RMK A01 T10011106  RH  045%=      5-min Rain = 0
KCO1 121029Z 09006KT M00/M11 A3024 RMK A01 T10011106  RH  045%=      5-min Rain = 0
KCO1 121030Z 08005KT M00/M11 A3024 RMK A01 T10011106  RH  045%=      5-min Rain = 0
KCO1 121031Z 09005KT M00/M11 A3024 RMK A01 T10021107  RH  045%=      5-min Rain = 0
KCO1 121032Z 10006KT M00/M11 A3025 RMK A01 T10011107  RH  045%=      5-min Rain = 0
KCO1 121033Z 09006KT M00/M11 A3025 RMK A01 T10011107  RH  045%=      5-min Rain = 0
KCO1 121034Z 09006KT M00/M11 A3024 RMK A01 T10011107  RH  045%=      5-min Rain = 0
KCO1 121035Z 08006KT M00/M11 A3024 RMK A01 T10011107  RH  045%=      5-min Rain = 0
KCO1 121036Z 09006KT M00/M11 A3024 RMK A01 T10011107  RH  045%=      5-min Rain = 0
KCO1 121037Z 08006KT M00/M11 A3024 RMK A01 T10011107  RH  045%=      5-min Rain = 0
KCO1 121038Z 08006KT M00/M11 A3024 RMK A01 T10011107  RH  045%=      5-min Rain = 0
KCO1 121039Z 08006KT M00/M11 A3024 RMK A01 T10011107  RH  045%=      5-min Rain = 0
KCO1 121040Z 08005KT M00/M11 A3024 RMK A01 T10011107  RH  045%=      5-min Rain = 0
KCO1 121041Z 08005KT M00/M11 A3024 RMK A01 T10011107  RH  045%=      5-min Rain = 0
KCO1 121042Z 08005KT 00/11 A3024 RMK A01 T00-00-107  RH  045%=      5-min Rain = 0
KCO1 121043Z 08006KT 00/11 A3024 RMK A01 T00-00-107  RH  044%=      5-min Rain = 0
KCO1 121044Z 08006KT 00/M11 A3024 RMK A01 T00011106  RH  045%=      5-min Rain = 0
KCO1 121045Z 08006KT 00/M11 A3024 RMK A01 T00011105  RH  045%=      5-min Rain = 0
KCO1 121046Z 08005KT 00/M11 A3024 RMK A01 T00011105  RH  045%=      5-min Rain = 0
KCO1 121047Z 08005KT 00/11 A3024 RMK A01 T00000-105  RH  045%=      5-min Rain = 0
KCO1 121048Z 08005KT 00/M10 A3025 RMK A01 T00011104  RH  045%=      5-min Rain = 0
KCO1 121049Z 08005KT 00/10 A3025 RMK A01 T00000-104  RH  045%=      5-min Rain = 0
KCO1 121050Z 09006KT 00/10 A3025 RMK A01 T00000-104  RH  045%=      5-min Rain = 0
KCO1 121051Z 09006KT 00/M10 A3025 RMK A01 T00011104  RH  045%=      5-min Rain = 0
KCO1 121052Z 08006KT 00/10 A3025 RMK A01 T00000-104  RH  045%=      5-min Rain = 0
KCO1 121053Z 08006KT 00/M10 A3025 RMK A01 T00011103  RH  045%=      5-min Rain = 0
KCO1 121054Z 08006KT 00/M10 A3025 RMK A01 T00011103  RH  046%=      5-min Rain = 0
KCO1 121055Z 09007KT 00/M10 A3025 RMK A01 T00011103  RH  046%=      5-min Rain = 0
KCO1 121056Z 09005KT 00/10 A3025 RMK A01 T00000-103  RH  046%=      5-min Rain = 0
KCO1 121057Z 09007KT 00/10 A3025 RMK A01 T00000-104  RH  045%=      5-min Rain = 0
KCO1 121058Z 08007KT 00/10 A3024 RMK A01 T00000-104  RH  045%=      5-min Rain = 0
KCO1 121059Z 08006KT 00/M10 A3024 RMK A01 T00011104  RH  045%=      5-min Rain = 0
KCO1 121100Z 08006KT 00/10 A3024 RMK A01 T00000-104  RH  045%=      5-min Rain = 0
KCO1 121101Z 08008KT 00/M10 A3024 RMK A01 T00011104  RH  045%=      5-min Rain = 0
KCO1 121102Z 08007KT 00/M10 A3024 RMK A01 T00011104  RH  045%=      5-min Rain = 0
KCO1 121103Z 08006KT 00/M10 A3024 RMK A01 T00011104  RH  045%=      5-min Rain = 0
KCO1 121104Z 08006KT 00/M11 A3024 RMK A01 T00011105  RH  045%=      5-min Rain = 0
KCO1 121105Z 09006KT 00/M10 A3024 RMK A01 T00011104  RH  045%=      5-min Rain = 0
KCO1 121106Z 08004KT 00/M11 A3025 RMK A01 T00011105  RH  045%=      5-min Rain = 0
KCO1 121107Z 08006KT 00/M10 A3025 RMK A01 T00021104  RH  045%=      5-min Rain = 0
KCO1 121108Z 08005KT 00/M11 A3025 RMK A01 T00021105  RH  045%=      5-min Rain = 0
KCO1 121109Z 08005KT 00/M11 A3025 RMK A01 T00021105  RH  045%=      5-min Rain = 0
KCO1 121110Z 08005KT 00/M10 A3025 RMK A01 T00031104  RH  045%=      5-min Rain = 0
KCO1 121111Z 09005KT 00/M10 A3025 RMK A01 T00031104  RH  045%=      5-min Rain = 0
KCO1 121112Z 08005KT 00/M10 A3025 RMK A01 T00021104  RH  045%=      5-min Rain = 0
KCO1 121113Z 08005KT 00/M11 A3025 RMK A01 T00021105  RH  044%=      5-min Rain = 0
KCO1 121114Z 08006KT 00/M11 A3025 RMK A01 T00021105  RH  044%=      5-min Rain = 0
KCO1 121115Z 08005KT 00/M11 A3025 RMK A01 T00021105  RH  044%=      5-min Rain = 0
KCO1 121116Z 08005KT 00/M11 A3025 RMK A01 T00021105  RH  044%=      5-min Rain = 0
KCO1 121117Z 08005KT 00/M11 A3025 RMK A01 T00021105  RH  044%=      5-min Rain = 0
KCO1 121118Z 08006KT 00/M11 A3025 RMK A01 T00021105  RH  044%=      5-min Rain = 0
KCO1 121119Z 08006KT 00/M11 A3025 RMK A01 T00021105  RH  044%=      5-min Rain = 0
KCO1 121120Z 08006KT 00/M11 A3025 RMK A01 T00021105  RH  044%=      5-min Rain = 0
KCO1 121121Z 08004KT 00/M11 A3025 RMK A01 T00021105  RH  044%=      5-min Rain = 0
KCO1 121122Z 07005KT 00/M11 A3025 RMK A01 T00021105  RH  044%=      5-min Rain = 0
KCO1 121123Z 08005KT 00/M10 A3025 RMK A01 T00031104  RH  045%=      5-min Rain = 0
KCO1 121124Z 08005KT 00/M11 A3025 RMK A01 T00021105  RH  044%=      5-min Rain = 0
KCO1 121125Z 08006KT 00/M11 A3025 RMK A01 T00021105  RH  045%=      5-min Rain = 0
KCO1 121126Z 07006KT 00/M11 A3025 RMK A01 T00021105  RH  045%=      5-min Rain = 0
KCO1 121127Z 07005KT 00/M10 A3025 RMK A01 T00021104  RH  045%=      5-min Rain = 0
KCO1 121128Z 08005KT 00/M10 A3025 RMK A01 T00021104  RH  045%=      5-min Rain = 0
KCO1 121129Z 08005KT 00/M10 A3025 RMK A01 T00021104  RH  045%=      5-min Rain = 0
KCO1 121130Z 07005KT 00/M10 A3025 RMK A01 T00021104  RH  045%=      5-min Rain = 0
KCO1 121131Z 07006KT 00/M10 A3025 RMK A01 T00021104  RH  045%=      5-min Rain = 0
KCO1 121132Z 07006KT 00/M10 A3025 RMK A01 T00021104  RH  045%=      5-min Rain = 0
KCO1 121133Z 07006KT 00/M10 A3025 RMK A01 T00021104  RH  045%=      5-min Rain = 0
KCO1 121134Z 07005KT 00/M10 A3025 RMK A01 T00021104  RH  045%=      5-min Rain = 0
KCO1 121135Z 07006KT 00/M10 A3025 RMK A01 T00021104  RH  045%=      5-min Rain = 0
KCO1 121136Z 07006KT 00/M10 A3025 RMK A01 T00021104  RH  045%=      5-min Rain = 0
KCO1 121137Z 07006KT 00/M10 A3025 RMK A01 T00021104  RH  045%=      5-min Rain = 0
KCO1 121138Z 07005KT 00/M10 A3025 RMK A01 T00021104  RH  045%=      5-min Rain = 0
KCO1 121139Z 07006KT 00/M11 A3025 RMK A01 T00011105  RH  045%=      5-min Rain = 0
KCO1 121140Z 07006KT 00/M11 A3025 RMK A01 T00011105  RH  045%=      5-min Rain = 0
KCO1 121141Z 07006KT 00/M11 A3025 RMK A01 T00011105  RH  045%=      5-min Rain = 0
KCO1 121142Z 07006KT 00/M10 A3025 RMK A01 T00011104  RH  045%=      5-min Rain = 0
KCO1 121143Z 07006KT 00/11 A3025 RMK A01 T00000-105  RH  045%=      5-min Rain = 0
KCO1 121144Z 08006KT 00/10 A3025 RMK A01 T00-00-104  RH  045%=      5-min Rain = 0
KCO1 121145Z 08007KT 00/10 A3025 RMK A01 T00-00-104  RH  046%=      5-min Rain = 0
KCO1 121146Z 08006KT 00/10 A3025 RMK A01 T00-00-103  RH  046%=      5-min Rain = 0
KCO1 121147Z 08006KT M00/M10 A3025 RMK A01 T10011103  RH  046%=      5-min Rain = 0
KCO1 121148Z 08006KT M00/M10 A3025 RMK A01 T10021103  RH  046%=      5-min Rain = 0
KCO1 121149Z 08007KT M00/M10 A3025 RMK A01 T10021103  RH  046%=      5-min Rain = 0
KCO1 121150Z 07006KT M00/M10 A3025 RMK A01 T10021103  RH  046%=      5-min Rain = 0
KCO1 121151Z 07007KT M00/M10 A3025 RMK A01 T10021103  RH  046%=      5-min Rain = 0
KCO1 121152Z 07006KT M00/M10 A3025 RMK A01 T10021103  RH  046%=      5-min Rain = 0
KCO1 121153Z 07007KT M00/M10 A3025 RMK A01 T10021103  RH  046%=      5-min Rain = 0
KCO1 121154Z 07006KT M00/M10 A3025 RMK A01 T10021103  RH  047%=      5-min Rain = 0
KCO1 121155Z 07006KT M00/M10 A3025 RMK A01 T10021103  RH  047%=      5-min Rain = 0
KCO1 121156Z 07006KT M00/M10 A3025 RMK A01 T10021102  RH  047%=      5-min Rain = 0
KCO1 121157Z 07006KT M00/M10 A3025 RMK A01 T10031103  RH  047%=      5-min Rain = 0
KCO1 121158Z 07006KT M00/M10 A3025 RMK A01 T10041103  RH  047%=      5-min Rain = 0
KCO1 121159Z 08005KT M00/M10 A3025 RMK A01 T10041102  RH  047%=      5-min Rain = 0
KCO1 121200Z 08006KT M00/M10 A3025 RMK A01 T10041102  RH  047%=      5-min Rain = 0
KCO1 121201Z 07005KT M00/M10 A3025 RMK A01 T10041102  RH  048%=      5-min Rain = 0
KCO1 121202Z 07005KT M01/M10 A3025 RMK A01 T10051103  RH  048%=      5-min Rain = 0
KCO1 121203Z 07005KT M01/M10 A3025 RMK A01 T10051103  RH  048%=      5-min Rain = 0
KCO1 121204Z 07006KT M01/M10 A3025 RMK A01 T10061103  RH  048%=      5-min Rain = 0
KCO1 121205Z 07006KT M01/M10 A3025 RMK A01 T10061103  RH  048%=      5-min Rain = 0
KCO1 121206Z 07005KT M01/M10 A3025 RMK A01 T10071103  RH  048%=      5-min Rain = 0
KCO1 121207Z 07005KT M01/M10 A3025 RMK A01 T10071103  RH  048%=      5-min Rain = 0
KCO1 121208Z 07006KT M01/M10 A3025 RMK A01 T10071103  RH  048%=      5-min Rain = 0
KCO1 121209Z 07006KT M01/M10 A3025 RMK A01 T10071103  RH  048%=      5-min Rain = 0
KCO1 121210Z 07005KT M01/M10 A3025 RMK A01 T10071103  RH  048%=      5-min Rain = 0
KCO1 121211Z 07006KT M01/M10 A3025 RMK A01 T10071103  RH  048%=      5-min Rain = 0
KCO1 121212Z 07005KT M01/M10 A3025 RMK A01 T10071103  RH  048%=      5-min Rain = 0
KCO1 121213Z 07006KT M01/M10 A3025 RMK A01 T10071103  RH  048%=      5-min Rain = 0
KCO1 121214Z 07006KT M01/M10 A3025 RMK A01 T10071103  RH  048%=      5-min Rain = 0
KCO1 121215Z 07006KT M01/M10 A3025 RMK A01 T10081104  RH  048%=      5-min Rain = 0
KCO1 121216Z 08006KT M01/M10 A3025 RMK A01 T10071103  RH  048%=      5-min Rain = 0
KCO1 121217Z 08006KT M01/M10 A3025 RMK A01 T10071104  RH  048%=      5-min Rain = 0
KCO1 121218Z 08006KT M01/M10 A3025 RMK A01 T10081104  RH  048%=      5-min Rain = 0
KCO1 121219Z 08006KT M01/M10 A3025 RMK A01 T10071103  RH  048%=      5-min Rain = 0
KCO1 121220Z 08006KT M01/M10 A3025 RMK A01 T10081103  RH  048%=      5-min Rain = 0
KCO1 121221Z 08006KT M01/M10 A3025 RMK A01 T10081103  RH  049%=      5-min Rain = 0
KCO1 121222Z 08005KT M01/M10 A3025 RMK A01 T10091104  RH  049%=      5-min Rain = 0
KCO1 121223Z 08005KT M01/M10 A3025 RMK A01 T10091103  RH  049%=      5-min Rain = 0
KCO1 121224Z 08006KT M01/M10 A3025 RMK A01 T10091104  RH  049%=      5-min Rain = 0
KCO1 121225Z 08007KT M01/M10 A3025 RMK A01 T10091104  RH  049%=      5-min Rain = 0
KCO1 121226Z 08006KT M01/M10 A3025 RMK A01 T10091104  RH  049%=      5-min Rain = 0
KCO1 121227Z 08006KT M01/M10 A3025 RMK A01 T10081104  RH  048%=      5-min Rain = 0
KCO1 121228Z 08006KT M01/M10 A3025 RMK A01 T10081104  RH  048%=      5-min Rain = 0
KCO1 121229Z 08006KT M01/M11 A3025 RMK A01 T10081105  RH  048%=      5-min Rain = 0
KCO1 121230Z 08006KT M01/M11 A3025 RMK A01 T10081105  RH  048%=      5-min Rain = 0
KCO1 121231Z 08008KT M01/M11 A3025 RMK A01 T10071105  RH  047%=      5-min Rain = 0
KCO1 121232Z 08007KT M01/M11 A3025 RMK A01 T10061105  RH  047%=      5-min Rain = 0
KCO1 121233Z 08007KT M01/M11 A3025 RMK A01 T10051105  RH  047%=      5-min Rain = 0
KCO1 121234Z 08009KT M01/M11 A3025 RMK A01 T10051106  RH  046%=      5-min Rain = 0
KCO1 121235Z 08008KT M00/M11 A3025 RMK A01 T10041106  RH  046%=      5-min Rain = 0
KCO1 121236Z 08008KT M00/M11 A3025 RMK A01 T10041106  RH  046%=      5-min Rain = 0
KCO1 121237Z 09009KT M00/M11 A3025 RMK A01 T10031106  RH  046%=      5-min Rain = 0
KCO1 121238Z 08007KT M00/M11 A3025 RMK A01 T10031106  RH  046%=      5-min Rain = 0
KCO1 121239Z 08009KT M00/M11 A3025 RMK A01 T10031107  RH  046%=      5-min Rain = 0
KCO1 121240Z 08009KT M00/M11 A3025 RMK A01 T10031106  RH  046%=      5-min Rain = 0
KCO1 121241Z 08008KT M00/M11 A3025 RMK A01 T10031106  RH  046%=      5-min Rain = 0
KCO1 121242Z 08008KT M00/M11 A3025 RMK A01 T10031106  RH  045%=      5-min Rain = 0
KCO1 121243Z 08010KT M00/M11 A3025 RMK A01 T10031107  RH  045%=      5-min Rain = 0
KCO1 121244Z 08008KT M00/M11 A3025 RMK A01 T10021106  RH  045%=      5-min Rain = 0
KCO1 121245Z 08010KT M00/M11 A3025 RMK A01 T10031107  RH  045%=      5-min Rain = 0
KCO1 121246Z 08009KT M00/M11 A3025 RMK A01 T10031106  RH  045%=      5-min Rain = 0
KCO1 121247Z 08009KT M00/M11 A3025 RMK A01 T10021106  RH  046%=      5-min Rain = 0
KCO1 121248Z 08009KT M00/M11 A3025 RMK A01 T10021105  RH  046%=      5-min Rain = 0
KCO1 121249Z 08009KT M00/M11 A3025 RMK A01 T10021105  RH  046%=      5-min Rain = 0
KCO1 121250Z 08009KT M00/M11 A3025 RMK A01 T10021105  RH  046%=      5-min Rain = 0
KCO1 121251Z 08008KT M00/M11 A3025 RMK A01 T10021105  RH  046%=      5-min Rain = 0
KCO1 121252Z 08009KT M00/M11 A3025 RMK A01 T10021105  RH  046%=      5-min Rain = 0
KCO1 121253Z 08009KT M00/M11 A3025 RMK A01 T10021105  RH  046%=      5-min Rain = 0
KCO1 121254Z 08010KT M00/M11 A3025 RMK A01 T10021105  RH  046%=      5-min Rain = 0
KCO1 121255Z 08009KT M00/M11 A3025 RMK A01 T10021105  RH  046%=      5-min Rain = 0
KCO1 121256Z 08008KT M00/M11 A3025 RMK A01 T10031105  RH  046%=      5-min Rain = 0
KCO1 121257Z 09009KT M00/M11 A3025 RMK A01 T10031105  RH  046%=      5-min Rain = 0
KCO1 121258Z 08007KT M00/M11 A3025 RMK A01 T10031105  RH  046%=      5-min Rain = 0
KCO1 121259Z 09008KT M00/M11 A3025 RMK A01 T10031105  RH  046%=      5-min Rain = 0
KCO1 121300Z 08007KT M00/M11 A3025 RMK A01 T10041105  RH  046%=      5-min Rain = 0
KCO1 121301Z 09008KT M00/M11 A3025 RMK A01 T10041105  RH  046%=      5-min Rain = 0
KCO1 121302Z 08008KT M01/M11 A3025 RMK A01 T10051105  RH  047%=      5-min Rain = 0
KCO1 121303Z 08008KT M01/M11 A3025 RMK A01 T10051105  RH  047%=      5-min Rain = 0
KCO1 121304Z 08008KT M01/M11 A3025 RMK A01 T10051105  RH  047%=      5-min Rain = 0
KCO1 121305Z 08009KT M01/M11 A3025 RMK A01 T10051106  RH  047%=      5-min Rain = 0
KCO1 121306Z 08009KT M01/M11 A3026 RMK A01 T10051106  RH  046%=      5-min Rain = 0
KCO1 121307Z 09009KT M01/M11 A3026 RMK A01 T10051106  RH  046%=      5-min Rain = 0
KCO1 121308Z 09010KT M01/M11 A3026 RMK A01 T10051106  RH  047%=      5-min Rain = 0
KCO1 121309Z 09009KT M01/M11 A3026 RMK A01 T10051106  RH  047%=      5-min Rain = 0
KCO1 121310Z 09009KT M01/M11 A3026 RMK A01 T10051106  RH  046%=      5-min Rain = 0
KCO1 121311Z 09009KT M01/M11 A3026 RMK A01 T10051106  RH  046%=      5-min Rain = 0
KCO1 121312Z 09009KT M01/M11 A3026 RMK A01 T10051106  RH  046%=      5-min Rain = 0
KCO1 121313Z 09008KT M01/M11 A3026 RMK A01 T10051106  RH  046%=      5-min Rain = 0
KCO1 121314Z 09009KT M01/M11 A3026 RMK A01 T10051106  RH  046%=      5-min Rain = 0
KCO1 121315Z 09008KT M01/M11 A3026 RMK A01 T10061107  RH  046%=      5-min Rain = 0
KCO1 121316Z 09007KT M01/M11 A3026 RMK A01 T10061107  RH  046%=      5-min Rain = 0
KCO1 121317Z 08008KT M01/M11 A3026 RMK A01 T10061107  RH  047%=      5-min Rain = 0
KCO1 121318Z 08008KT M01/M11 A3026 RMK A01 T10071107  RH  047%=      5-min Rain = 0
KCO1 121319Z 09007KT M01/M11 A3026 RMK A01 T10071107  RH  047%=      5-min Rain = 0
KCO1 121320Z 09009KT M01/M11 A3026 RMK A01 T10071107  RH  047%=      5-min Rain = 0
KCO1 121321Z 09008KT M01/M11 A3026 RMK A01 T10071107  RH  047%=      5-min Rain = 0
KCO1 121322Z 09009KT M01/M11 A3026 RMK A01 T10071106  RH  047%=      5-min Rain = 0
KCO1 121323Z 09008KT M01/M11 A3026 RMK A01 T10071107  RH  047%=      5-min Rain = 0
KCO1 121324Z 09008KT M01/M11 A3026 RMK A01 T10071107  RH  047%=      5-min Rain = 0
KCO1 121325Z 09008KT M01/M11 A3026 RMK A01 T10071107  RH  047%=      5-min Rain = 0
KCO1 121326Z 09008KT M01/M11 A3026 RMK A01 T10071107  RH  047%=      5-min Rain = 0
KCO1 121327Z 09007KT M01/M11 A3027 RMK A01 T10071107  RH  047%=      5-min Rain = 0
KCO1 121328Z 09008KT M01/M11 A3027 RMK A01 T10071107  RH  047%=      5-min Rain = 0
KCO1 121329Z 09009KT M01/M11 A3027 RMK A01 T10071107  RH  047%=      5-min Rain = 0
KCO1 121330Z 08009KT M01/M11 A3027 RMK A01 T10071107  RH  047%=      5-min Rain = 0
KCO1 121331Z 08008KT M01/M11 A3027 RMK A01 T10071107  RH  047%=      5-min Rain = 0
KCO1 121332Z 09008KT M01/M11 A3027 RMK A01 T10081108  RH  047%=      5-min Rain = 0
KCO1 121333Z 09007KT M01/M11 A3027 RMK A01 T10081108  RH  047%=      5-min Rain = 0
KCO1 121334Z 09007KT M01/M11 A3027 RMK A01 T10081108  RH  047%=      5-min Rain = 0
KCO1 121335Z 09009KT M01/M11 A3027 RMK A01 T10081108  RH  047%=      5-min Rain = 0
KCO1 121336Z 09008KT M01/M11 A3027 RMK A01 T10081108  RH  047%=      5-min Rain = 0
KCO1 121337Z 09008KT M01/M11 A3027 RMK A01 T10081107  RH  047%=      5-min Rain = 0
KCO1 121338Z 09009KT M01/M11 A3027 RMK A01 T10081108  RH  047%=      5-min Rain = 0
KCO1 121339Z 09008KT M01/M11 A3027 RMK A01 T10081108  RH  047%=      5-min Rain = 0
KCO1 121340Z 09008KT M01/M11 A3027 RMK A01 T10081108  RH  047%=      5-min Rain = 0
KCO1 121341Z 08008KT M01/M11 A3027 RMK A01 T10081108  RH  047%=      5-min Rain = 0
KCO1 121342Z 08008KT M01/M11 A3027 RMK A01 T10081108  RH  047%=      5-min Rain = 0
KCO1 121343Z 08008KT M01/M11 A3027 RMK A01 T10081108  RH  047%=      5-min Rain = 0
KCO1 121344Z 08007KT M01/M11 A3027 RMK A01 T10081108  RH  047%=      5-min Rain = 0
KCO1 121345Z 08008KT M01/M11 A3027 RMK A01 T10081108  RH  047%=      5-min Rain = 0
KCO1 121346Z 08008KT M01/M11 A3027 RMK A01 T10081108  RH  047%=      5-min Rain = 0
KCO1 121347Z 09008KT M01/M11 A3027 RMK A01 T10081108  RH  047%=      5-min Rain = 0
KCO1 121348Z 09008KT M01/M11 A3027 RMK A01 T10081108  RH  047%=      5-min Rain = 0
KCO1 121349Z 09009KT M01/M11 A3027 RMK A01 T10081107  RH  047%=      5-min Rain = 0
KCO1 121350Z 09008KT M01/M11 A3027 RMK A01 T10081107  RH  047%=      5-min Rain = 0
KCO1 121351Z 09007KT M01/M11 A3027 RMK A01 T10081107  RH  047%=      5-min Rain = 0
KCO1 121352Z 09008KT M01/M11 A3027 RMK A01 T10081107  RH  047%=      5-min Rain = 0
KCO1 121353Z 09008KT M01/M11 A3027 RMK A01 T10081107  RH  047%=      5-min Rain = 0
KCO1 121354Z 09008KT M01/M11 A3027 RMK A01 T10081107  RH  047%=      5-min Rain = 0
KCO1 121355Z 09008KT M01/M11 A3027 RMK A01 T10081107  RH  047%=      5-min Rain = 0
KCO1 121356Z 09008KT M01/M11 A3027 RMK A01 T10071107  RH  047%=      5-min Rain = 0
KCO1 121357Z 09008KT M01/M11 A3027 RMK A01 T10071107  RH  047%=      5-min Rain = 0
KCO1 121358Z 09008KT M01/M11 A3027 RMK A01 T10061107  RH  046%=      5-min Rain = 0
KCO1 121359Z 09009KT M01/M11 A3027 RMK A01 T10061107  RH  046%=      5-min Rain = 0
KCO1 121400Z 09009KT M01/M11 A3027 RMK A01 T10061107  RH  046%=      5-min Rain = 0
KCO1 121401Z 09008KT M01/M11 A3027 RMK A01 T10051107  RH  046%=      5-min Rain = 0
KCO1 121402Z 09008KT M01/M11 A3027 RMK A01 T10051107  RH  046%=      5-min Rain = 0
KCO1 121403Z 10008KT M00/M11 A3026 RMK A01 T10041107  RH  046%=      5-min Rain = 0
KCO1 121404Z 10008KT M00/M11 A3027 RMK A01 T10031106  RH  046%=      5-min Rain = 0
KCO1 121405Z 10010KT M00/M11 A3027 RMK A01 T10031106  RH  046%=      5-min Rain = 0
KCO1 121406Z 10011KT M00/M11 A3026 RMK A01 T10021105  RH  046%=      5-min Rain = 0
KCO1 121407Z 10009KT M00/M11 A3026 RMK A01 T10011105  RH  045%=      5-min Rain = 0
KCO1 121408Z 09010KT M00/M11 A3026 RMK A01 T10011106  RH  045%=      5-min Rain = 0
KCO1 121409Z 10009KT 00/11 A3026 RMK A01 T00000-105  RH  045%=      5-min Rain = 0
KCO1 121410Z 09009KT 00/M11 A3026 RMK A01 T00011105  RH  045%=      5-min Rain = 0
KCO1 121411Z 09009KT 00/M11 A3027 RMK A01 T00011105  RH  045%=      5-min Rain = 0
KCO1 121412Z 10010KT 00/M11 A3027 RMK A01 T00021105  RH  045%=      5-min Rain = 0
KCO1 121413Z 10009KT 00/M11 A3027 RMK A01 T00021105  RH  044%=      5-min Rain = 0
KCO1 121414Z 10010KT 00/M11 A3027 RMK A01 T00021105  RH  044%=      5-min Rain = 0
KCO1 121415Z 10009KT 00/M11 A3027 RMK A01 T00031105  RH  044%=      5-min Rain = 0
KCO1 121416Z 10008KT 00/M11 A3027 RMK A01 T00031105  RH  044%=      5-min Rain = 0
KCO1 121417Z 10009KT 00/M11 A3027 RMK A01 T00031105  RH  044%=      5-min Rain = 0
KCO1 121418Z 10009KT 00/M11 A3027 RMK A01 T00031105  RH  044%=      5-min Rain = 0
KCO1 121419Z 10010KT 00/M11 A3027 RMK A01 T00031105  RH  044%=      5-min Rain = 0
KCO1 121420Z 10010KT 00/M11 A3027 RMK A01 T00031105  RH  044%=      5-min Rain = 0
KCO1 121421Z 10011KT 00/M11 A3027 RMK A01 T00031105  RH  044%=      5-min Rain = 0
KCO1 121422Z 10009KT 00/M11 A3027 RMK A01 T00031105  RH  044%=      5-min Rain = 0
KCO1 121423Z 10012KT 00/M11 A3027 RMK A01 T00031105  RH  044%=      5-min Rain = 0
KCO1 121424Z 10010KT 00/M10 A3027 RMK A01 T00041104  RH  044%=      5-min Rain = 0
KCO1 121425Z 10010KT 00/M10 A3027 RMK A01 T00041104  RH  044%=      5-min Rain = 0
KCO1 121426Z 10010KT 01/M10 A3027 RMK A01 T00051104  RH  044%=      5-min Rain = 0
KCO1 121427Z 10011KT 01/M10 A3027 RMK A01 T00051104  RH  044%=      5-min Rain = 0
KCO1 121428Z 10010KT 01/M11 A3027 RMK A01 T00051105  RH  044%=      5-min Rain = 0
KCO1 121429Z 10009KT 01/M10 A3027 RMK A01 T00061104  RH  043%=      5-min Rain = 0
KCO1 121430Z 10010KT 01/M11 A3027 RMK A01 T00061105  RH  043%=      5-min Rain = 0
KCO1 121431Z 10010KT 01/M11 A3027 RMK A01 T00061105  RH  043%=      5-min Rain = 0
KCO1 121432Z 11010KT 01/M11 A3027 RMK A01 T00061105  RH  043%=      5-min Rain = 0
KCO1 121433Z 10011KT 01/M10 A3027 RMK A01 T00071104  RH  043%=      5-min Rain = 0
KCO1 121434Z 10011KT 01/M10 A3027 RMK A01 T00081104  RH  043%=      5-min Rain = 0
KCO1 121435Z 10011KT 01/M10 A3027 RMK A01 T00101103  RH  043%=      5-min Rain = 0
KCO1 121436Z 11010KT 01/M10 A3027 RMK A01 T00111103  RH  042%=      5-min Rain = 0
KCO1 121437Z 11010KT 01/M10 A3027 RMK A01 T00111104  RH  042%=      5-min Rain = 0
KCO1 121438Z 11010KT 01/M11 A3027 RMK A01 T00101105  RH  042%=      5-min Rain = 0
KCO1 121439Z 11011KT 01/M11 A3028 RMK A01 T00101105  RH  042%=      5-min Rain = 0
KCO1 121440Z 11012KT 01/M10 A3028 RMK A01 T00111104  RH  042%=      5-min Rain = 0
KCO1 121441Z 10012KT 01/M10 A3028 RMK A01 T00121104  RH  042%=      5-min Rain = 0
KCO1 121442Z 11010KT 01/M10 A3028 RMK A01 T00131104  RH  041%=      5-min Rain = 0
KCO1 121443Z 11011KT 02/M10 A3028 RMK A01 T00151104  RH  041%=      5-min Rain = 0
KCO1 121444Z 10012KT 02/M10 A3028 RMK A01 T00161103  RH  041%=      5-min Rain = 0
KCO1 121445Z 11011KT 02/M10 A3028 RMK A01 T00181103  RH  040%=      5-min Rain = 0
KCO1 121446Z 11011KT 02/M10 A3028 RMK A01 T00191103  RH  040%=      5-min Rain = 0
KCO1 121447Z 11010KT 02/M10 A3028 RMK A01 T00201103  RH  040%=      5-min Rain = 0
KCO1 121448Z 11011KT 02/M10 A3028 RMK A01 T00221103  RH  039%=      5-min Rain = 0
KCO1 121449Z 11011KT 02/M10 A3028 RMK A01 T00221103  RH  039%=      5-min Rain = 0
KCO1 121450Z 11013KT 02/M10 A3028 RMK A01 T00221104  RH  039%=      5-min Rain = 0
KCO1 121451Z 11013KT 02/M10 A3028 RMK A01 T00231103  RH  039%=      5-min Rain = 0
KCO1 121452Z 12014KT 02/M10 A3028 RMK A01 T00241104  RH  038%=      5-min Rain = 0
KCO1 121453Z 11012KT 02/M10 A3028 RMK A01 T00241104  RH  038%=      5-min Rain = 0
KCO1 121454Z 11012KT 02/M10 A3028 RMK A01 T00241104  RH  038%=      5-min Rain = 0
KCO1 121455Z 11012KT 03/M10 A3028 RMK A01 T00251103  RH  038%=      5-min Rain = 0
KCO1 121456Z 11014KT 03/M10 A3028 RMK A01 T00261104  RH  038%=      5-min Rain = 0
KCO1 121457Z 11012KT 03/M11 A3028 RMK A01 T00261105  RH  038%=      5-min Rain = 0
KCO1 121458Z 11014KT 03/M10 A3028 RMK A01 T00261104  RH  038%=      5-min Rain = 0
KCO1 121459Z 12012KT 03/M10 A3028 RMK A01 T00261104  RH  038%=      5-min Rain = 0
KCO1 121500Z 11012KT 03/M10 A3028 RMK A01 T00281103  RH  038%=      5-min Rain = 0
KCO1 121501Z 11012KT 03/M10 A3028 RMK A01 T00291103  RH  037%=      5-min Rain = 0
KCO1 121502Z 12015KT 03/M10 A3028 RMK A01 T00291104  RH  037%=      5-min Rain = 0
KCO1 121503Z 12012KT 03/M11 A3028 RMK A01 T00291105  RH  037%=      5-min Rain = 0
KCO1 121504Z 12014KT 03/M11 A3028 RMK A01 T00291105  RH  037%=      5-min Rain = 0
KCO1 121505Z 11015KT 03/M11 A3028 RMK A01 T00291105  RH  036%=      5-min Rain = 0
KCO1 121506Z 12012KT 03/M11 A3028 RMK A01 T00301106  RH  036%=      5-min Rain = 0
KCO1 121507Z 12014G20KT 03/M11 A3028 RMK A01 T00301105  RH  036%=      5-min Rain = 0
KCO1 121508Z 12013KT 03/M11 A3028 RMK A01 T00311106  RH  036%=      5-min Rain = 0
KCO1 121509Z 12011KT 03/M11 A3028 RMK A01 T00321106  RH  036%=      5-min Rain = 0
KCO1 121510Z 11015KT 03/M11 A3028 RMK A01 T00331105  RH  036%=      5-min Rain = 0
KCO1 121511Z 12013KT 03/M11 A3028 RMK A01 T00331106  RH  035%=      5-min Rain = 0
KCO1 121512Z 12015KT 03/M11 A3028 RMK A01 T00331106  RH  035%=      5-min Rain = 0
KCO1 121513Z 11016KT 03/M11 A3028 RMK A01 T00321106  RH  035%=      5-min Rain = 0
KCO1 121514Z 12015KT 03/M11 A3028 RMK A01 T00331107  RH  035%=      5-min Rain = 0
KCO1 121515Z 12016KT 03/M11 A3028 RMK A01 T00331107  RH  035%=      5-min Rain = 0
KCO1 121516Z 12013KT 03/M11 A3028 RMK A01 T00331108  RH  035%=      5-min Rain = 0
KCO1 121517Z 12012KT 03/M11 A3028 RMK A01 T00341107  RH  035%=      5-min Rain = 0
KCO1 121518Z 10015KT 04/M11 A3028 RMK A01 T00351106  RH  035%=      5-min Rain = 0
KCO1 121519Z 11015KT 04/M11 A3028 RMK A01 T00351107  RH  034%=      5-min Rain = 0
KCO1 121520Z 11015KT 04/M11 A3028 RMK A01 T00351107  RH  034%=      5-min Rain = 0
KCO1 121521Z 10016KT 04/M11 A3028 RMK A01 T00351108  RH  034%=      5-min Rain = 0
KCO1 121522Z 11016G21KT 04/M11 A3028 RMK A01 T00351108  RH  034%=      5-min Rain = 0
KCO1 121523Z 11017KT 03/M11 A3028 RMK A01 T00341109  RH  034%=      5-min Rain = 0
KCO1 121524Z 11014KT 03/M11 A3028 RMK A01 T00331109  RH  034%=      5-min Rain = 0
KCO1 121525Z 10015KT 04/M11 A3028 RMK A01 T00351107  RH  035%=      5-min Rain = 0
KCO1 121526Z 11014KT 04/M11 A3028 RMK A01 T00361108  RH  034%=      5-min Rain = 0
KCO1 121527Z 11013KT 04/M11 A3028 RMK A01 T00351108  RH  034%=      5-min Rain = 0
KCO1 121528Z 10018KT 04/M11 A3028 RMK A01 T00361107  RH  034%=      5-min Rain = 0
KCO1 121529Z 11015KT 03/M11 A3028 RMK A01 T00341109  RH  034%=      5-min Rain = 0
KCO1 121530Z 11014KT 03/M11 A3028 RMK A01 T00341109  RH  034%=      5-min Rain = 0
KCO1 121531Z 11013G18KT 04/M11 A3028 RMK A01 T00361107  RH  034%=      5-min Rain = 0
KCO1 121532Z 11014KT 04/M11 A3028 RMK A01 T00371107  RH  034%=      5-min Rain = 0
KCO1 121533Z 11013KT 04/M11 A3028 RMK A01 T00391106  RH  034%=      5-min Rain = 0
KCO1 121534Z 10015KT 04/M11 A3028 RMK A01 T00401106  RH  034%=      5-min Rain = 0
KCO1 121535Z 11016KT 04/M11 A3028 RMK A01 T00391108  RH  033%=      5-min Rain = 0
KCO1 121536Z 11014KT 04/M11 A3028 RMK A01 T00391108  RH  033%=      5-min Rain = 0
KCO1 121537Z 11015KT 04/M11 A3028 RMK A01 T00401107  RH  033%=      5-min Rain = 0
KCO1 121538Z 11017KT 04/M11 A3028 RMK A01 T00401108  RH  033%=      5-min Rain = 0
KCO1 121539Z 11017KT 04/M11 A3028 RMK A01 T00381109  RH  033%=      5-min Rain = 0
KCO1 121540Z 12012KT 04/M11 A3028 RMK A01 T00371109  RH  034%=      5-min Rain = 0
KCO1 121541Z 11015KT 04/M11 A3028 RMK A01 T00391107  RH  034%=      5-min Rain = 0
KCO1 121542Z 11016KT 04/M11 A3028 RMK A01 T00401106  RH  033%=      5-min Rain = 0
KCO1 121543Z 11015KT 04/M11 A3028 RMK A01 T00401107  RH  033%=      5-min Rain = 0
KCO1 121544Z 10015KT 04/M11 A3028 RMK A01 T00401107  RH  033%=      5-min Rain = 0
KCO1 121545Z 11014KT 04/M11 A3028 RMK A01 T00411107  RH  033%=      5-min Rain = 0
KCO1 121546Z 11014KT 04/M11 A3028 RMK A01 T00421107  RH  033%=      5-min Rain = 0
KCO1 121547Z 10014KT 04/M11 A3028 RMK A01 T00421106  RH  033%=      5-min Rain = 0
KCO1 121548Z 11014G19KT 04/M11 A3029 RMK A01 T00431106  RH  033%=      5-min Rain = 0
KCO1 121549Z 12015KT 04/M11 A3029 RMK A01 T00441106  RH  033%=      5-min Rain = 0
KCO1 121550Z 12015KT 04/M11 A3028 RMK A01 T00441107  RH  033%=      5-min Rain = 0
KCO1 121551Z 12013KT 04/M11 A3028 RMK A01 T00431107  RH  033%=      5-min Rain = 0
KCO1 121552Z 10014G19KT 04/M11 A3029 RMK A01 T00431107  RH  033%=      5-min Rain = 0
KCO1 121553Z 11016KT 04/M11 A3028 RMK A01 T00421107  RH  033%=      5-min Rain = 0
KCO1 121554Z 10015KT 04/M11 A3029 RMK A01 T00421108  RH  033%=      5-min Rain = 0
KCO1 121555Z 10015KT 04/M11 A3029 RMK A01 T00411107  RH  033%=      5-min Rain = 0
KCO1 121556Z 11013KT 04/M11 A3029 RMK A01 T00411107  RH  033%=      5-min Rain = 0
KCO1 121557Z 12014KT 04/M11 A3028 RMK A01 T00431105  RH  033%=      5-min Rain = 0
KCO1 121558Z 11014KT 05/M11 A3028 RMK A01 T00451105  RH  033%=      5-min Rain = 0
KCO1 121559Z 11013KT 05/M11 A3028 RMK A01 T00451105  RH  033%=      5-min Rain = 0
KCO1 121600Z 11014KT 05/M11 A3028 RMK A01 T00451105  RH  033%=      5-min Rain = 0
KCO1 121601Z 11014KT 05/M11 A3028 RMK A01 T00461105  RH  033%=      5-min Rain = 0
KCO1 121602Z 11012KT 05/M11 A3028 RMK A01 T00461105  RH  032%=      5-min Rain = 0
KCO1 121603Z 11015KT 05/M10 A3028 RMK A01 T00481104  RH  033%=      5-min Rain = 0
KCO1 121604Z 11013KT 05/M10 A3028 RMK A01 T00481104  RH  032%=      5-min Rain = 0
KCO1 121605Z 12011KT 05/M10 A3028 RMK A01 T00481104  RH  032%=      5-min Rain = 0
KCO1 121606Z 11012KT 05/M10 A3028 RMK A01 T00491104  RH  032%=      5-min Rain = 0
KCO1 121607Z 11014KT 05/M11 A3028 RMK A01 T00491105  RH  032%=      5-min Rain = 0
KCO1 121608Z 10012KT 05/M11 A3028 RMK A01 T00491105  RH  032%=      5-min Rain = 0
KCO1 121609Z 10012KT 05/M11 A3028 RMK A01 T00491105  RH  032%=      5-min Rain = 0
KCO1 121610Z 11013KT 05/M11 A3028 RMK A01 T00491105  RH  032%=      5-min Rain = 0
KCO1 121611Z 10013G18KT 05/M11 A3028 RMK A01 T00491105  RH  032%=      5-min Rain = 0
KCO1 121612Z 11016KT 05/M10 A3028 RMK A01 T00511104  RH  032%=      5-min Rain = 0
KCO1 121613Z 11014KT 05/M10 A3028 RMK A01 T00521104  RH  031%=      5-min Rain = 0
KCO1 121614Z 11013KT 05/M11 A3028 RMK A01 T00501106  RH  031%=      5-min Rain = 0
KCO1 121615Z 11014KT 05/M11 A3028 RMK A01 T00501105  RH  032%=      5-min Rain = 0
KCO1 121616Z 12015KT 05/M10 A3028 RMK A01 T00511104  RH  032%=      5-min Rain = 0
KCO1 121617Z 11016KT 05/M10 A3028 RMK A01 T00511104  RH  032%=      5-min Rain = 0
KCO1 121618Z 11013KT 05/M11 A3028 RMK A01 T00511105  RH  031%=      5-min Rain = 0
KCO1 121619Z 11015KT 05/M10 A3028 RMK A01 T00511104  RH  031%=      5-min Rain = 0
KCO1 121620Z 12014KT 05/M11 A3028 RMK A01 T00511105  RH  031%=      5-min Rain = 0
KCO1 121621Z 11015KT 05/M11 A3028 RMK A01 T00511105  RH  031%=      5-min Rain = 0
KCO1 121622Z 11015KT 05/M10 A3028 RMK A01 T00521104  RH  031%=      5-min Rain = 0
KCO1 121623Z 11015KT 05/M10 A3028 RMK A01 T00521104  RH  031%=      5-min Rain = 0
KCO1 121624Z 11014KT 05/M10 A3028 RMK A01 T00531103  RH  031%=      5-min Rain = 0
KCO1 121625Z 10015KT 05/M11 A3028 RMK A01 T00521105  RH  031%=      5-min Rain = 0
KCO1 121626Z 12016KT 05/M11 A3028 RMK A01 T00511105  RH  031%=      5-min Rain = 0
KCO1 121627Z 12015G20KT 05/M11 A3028 RMK A01 T00521105  RH  031%=      5-min Rain = 0
KCO1 121628Z 11014KT 05/M10 A3028 RMK A01 T00521104  RH  031%=      5-min Rain = 0
KCO1 121629Z 12013KT 05/M10 A3028 RMK A01 T00531104  RH  031%=      5-min Rain = 0
KCO1 121630Z 12011KT 05/M10 A3028 RMK A01 T00541102  RH  031%=      5-min Rain = 0
KCO1 121631Z 10012KT 06/M10 A3028 RMK A01 T00581100  RH  031%=      5-min Rain = 0
KCO1 121632Z 11011G17KT 06/M10 A3028 RMK A01 T00591101  RH  031%=      5-min Rain = 0
KCO1 121633Z 11014KT 06/M10 A3028 RMK A01 T00601101  RH  030%=      5-min Rain = 0
KCO1 121634Z 10015KT 06/M10 A3028 RMK A01 T00591103  RH  030%=      5-min Rain = 0
KCO1 121635Z 11014KT 06/M11 A3028 RMK A01 T00561105  RH  030%=      5-min Rain = 0
KCO1 121636Z 10011KT 06/M10 A3028 RMK A01 T00551104  RH  031%=      5-min Rain = 0
KCO1 121637Z 11016KT 06/M10 A3028 RMK A01 T00581101  RH  031%=      5-min Rain = 0
KCO1 121638Z 11013KT 06/M10 A3028 RMK A01 T00581103  RH  030%=      5-min Rain = 0
KCO1 121639Z 10013KT 06/M11 A3028 RMK A01 T00561105  RH  030%=      5-min Rain = 0
KCO1 121640Z 10013KT 06/M10 A3028 RMK A01 T00571103  RH  031%=      5-min Rain = 0
KCO1 121641Z 10011KT 06/M10 A3028 RMK A01 T00591101  RH  031%=      5-min Rain = 0
KCO1 121642Z 10013KT 06/M10 A3028 RMK A01 T00601102  RH  030%=      5-min Rain = 0
KCO1 121643Z 11013KT 06/M10 A3028 RMK A01 T00621101  RH  030%=      5-min Rain = 0
KCO1 121644Z 12013G18KT 06/M10 A3028 RMK A01 T00621102  RH  030%=      5-min Rain = 0
KCO1 121645Z 11012KT 06/M10 A3027 RMK A01 T00621102  RH  030%=      5-min Rain = 0
KCO1 121646Z 10015KT 06/M10 A3028 RMK A01 T00621102  RH  030%=      5-min Rain = 0
KCO1 121647Z 10015KT 06/M10 A3028 RMK A01 T00621103  RH  030%=      5-min Rain = 0
KCO1 121648Z 10013KT 06/M10 A3027 RMK A01 T00621103  RH  030%=      5-min Rain = 0
KCO1 121649Z 10013KT 06/M10 A3028 RMK A01 T00611104  RH  030%=      5-min Rain = 0
KCO1 121650Z 12016KT 06/M10 A3027 RMK A01 T00621101  RH  030%=      5-min Rain = 0
KCO1 121651Z 12016KT 06/M10 A3027 RMK A01 T00631102  RH  030%=      5-min Rain = 0
KCO1 121652Z 12012KT 06/M10 A3027 RMK A01 T00631103  RH  029%=      5-min Rain = 0
KCO1 121653Z 11014KT 06/M10 A3027 RMK A01 T00641101  RH  030%=      5-min Rain = 0
KCO1 121654Z 11014KT 06/M10 A3027 RMK A01 T00641102  RH  029%=      5-min Rain = 0
KCO1 121655Z 10010KT 07/M10 A3027 RMK A01 T00651101  RH  029%=      5-min Rain = 0
KCO1 121656Z 10013KT 07/M10 A3027 RMK A01 T00671100  RH  029%=      5-min Rain = 0
KCO1 121657Z 10012G17KT 07/M10 A3027 RMK A01 T00671101  RH  029%=      5-min Rain = 0
KCO1 121658Z 09013KT 07/M10 A3027 RMK A01 T00661102  RH  029%=      5-min Rain = 0
KCO1 121659Z 09016KT 07/M10 A3027 RMK A01 T00651102  RH  029%=      5-min Rain = 0
KCO1 121700Z 10012G18KT 07/M10 A3027 RMK A01 T00651101  RH  029%=      5-min Rain = 0
KCO1 121701Z 11015KT 07/M10 A3027 RMK A01 T00681099  RH  029%=      5-min Rain = 0
KCO1 121702Z 10012KT 07/M10 A3027 RMK A01 T00671102  RH  029%=      5-min Rain = 0
KCO1 121703Z 10013KT 07/M10 A3027 RMK A01 T00671101  RH  029%=      5-min Rain = 0
KCO1 121704Z 10012KT 07/M10 A3027 RMK A01 T00671101  RH  029%=      5-min Rain = 0
KCO1 121705Z 11012KT 07/M10 A3027 RMK A01 T00661102  RH  029%=      5-min Rain = 0
KCO1 121706Z 10014KT 07/M10 A3027 RMK A01 T00671101  RH  029%=      5-min Rain = 0
KCO1 121707Z 10012KT 07/M10 A3027 RMK A01 T00671101  RH  029%=      5-min Rain = 0
KCO1 121708Z 10016KT 07/M10 A3027 RMK A01 T00671101  RH  029%=      5-min Rain = 0
KCO1 121709Z 10015G20KT 07/M10 A3027 RMK A01 T00681100  RH  029%=      5-min Rain = 0
KCO1 121710Z 10015KT 07/M10 A3027 RMK A01 T00681101  RH  029%=      5-min Rain = 0
KCO1 121711Z 10014KT 07/M10 A3027 RMK A01 T00681101  RH  029%=      5-min Rain = 0
KCO1 121712Z 11014KT 07/M10 A3027 RMK A01 T00691099  RH  029%=      5-min Rain = 0
KCO1 121713Z 11015KT 07/M10 A3027 RMK A01 T00711098  RH  029%=      5-min Rain = 0
KCO1 121714Z 11011KT 07/M10 A3027 RMK A01 T00711100  RH  029%=      5-min Rain = 0
KCO1 121715Z 10014KT 07/M10 A3027 RMK A01 T00711100  RH  029%=      5-min Rain = 0
KCO1 121716Z 11012KT 07/M10 A3026 RMK A01 T00701100  RH  029%=      5-min Rain = 0
KCO1 121717Z 11012KT 07/M10 A3027 RMK A01 T00701099  RH  029%=      5-min Rain = 0
KCO1 121718Z 11013KT 07/M10 A3027 RMK A01 T00721097  RH  029%=      5-min Rain = 0
KCO1 121719Z 11010KT 07/M10 A3026 RMK A01 T00721098  RH  029%=      5-min Rain = 0
KCO1 121720Z 10011KT 07/M10 A3027 RMK A01 T00721098  RH  029%=      5-min Rain = 0
KCO1 121721Z 10013KT 07/M10 A3027 RMK A01 T00721098  RH  029%=      5-min Rain = 0
KCO1 121722Z 11014G20KT 07/M10 A3026 RMK A01 T00711099  RH  029%=      5-min Rain = 0
KCO1 121723Z 11017KT 07/M10 A3026 RMK A01 T00711098  RH  029%=      5-min Rain = 0
KCO1 121724Z 11014KT 07/M10 A3026 RMK A01 T00721097  RH  029%=      5-min Rain = 0
KCO1 121725Z 10013KT 07/M10 A3026 RMK A01 T00721097  RH  029%=      5-min Rain = 0
KCO1 121726Z 10012KT 07/M10 A3026 RMK A01 T00721098  RH  029%=      5-min Rain = 0
KCO1 121727Z 11014KT 07/M10 A3026 RMK A01 T00721097  RH  029%=      5-min Rain = 0
KCO1 121728Z 11013KT 07/M10 A3026 RMK A01 T00741096  RH  029%=      5-min Rain = 0
KCO1 121729Z 11016KT 08/M10 A3026 RMK A01 T00761095  RH  029%=      5-min Rain = 0
KCO1 121730Z 12013G18KT 08/M10 A3026 RMK A01 T00761098  RH  028%=      5-min Rain = 0
KCO1 121731Z 12013KT 08/M10 A3026 RMK A01 T00751098  RH  028%=      5-min Rain = 0
KCO1 121732Z 10011G19KT 08/M10 A3026 RMK A01 T00771096  RH  028%=      5-min Rain = 0
KCO1 121733Z 10016KT 08/M10 A3026 RMK A01 T00791095  RH  028%=      5-min Rain = 0
KCO1 121734Z 10015KT 08/M10 A3026 RMK A01 T00771098  RH  028%=      5-min Rain = 0
KCO1 121735Z 11013KT 08/M10 A3026 RMK A01 T00771097  RH  028%=      5-min Rain = 0
KCO1 121736Z 11013KT 08/M09 A3026 RMK A01 T00791094  RH  028%=      5-min Rain = 0
KCO1 121737Z 12014KT 08/M09 A3026 RMK A01 T00801092  RH  029%=      5-min Rain = 0
KCO1 121738Z 11015KT 08/M09 A3026 RMK A01 T00811093  RH  028%=      5-min Rain = 0
KCO1 121739Z 10013KT 08/M10 A3026 RMK A01 T00791096  RH  028%=      5-min Rain = 0
KCO1 121740Z 09014KT 08/M09 A3026 RMK A01 T00791094  RH  028%=      5-min Rain = 0
KCO1 121741Z 10016KT 08/M10 A3026 RMK A01 T00791095  RH  028%=      5-min Rain = 0
KCO1 121742Z 11015KT 08/M09 A3026 RMK A01 T00781094  RH  028%=      5-min Rain = 0
KCO1 121743Z 11012KT 08/M09 A3026 RMK A01 T00801092  RH  028%=      5-min Rain = 0
KCO1 121744Z 11012KT 08/M09 A3026 RMK A01 T00811094  RH  028%=      5-min Rain = 0
KCO1 121745Z 11014KT 08/M10 A3026 RMK A01 T00801095  RH  028%=      5-min Rain = 0
KCO1 121746Z 11014KT 08/M10 A3026 RMK A01 T00771096  RH  028%=      5-min Rain = 0
KCO1 121747Z 11017KT 08/M10 A3026 RMK A01 T00761096  RH  028%=      5-min Rain = 0
KCO1 121748Z 13016KT 08/M09 A3025 RMK A01 T00771094  RH  029%=      5-min Rain = 0
KCO1 121749Z 12014KT 08/M09 A3025 RMK A01 T00781094  RH  028%=      5-min Rain = 0
KCO1 121750Z 12014KT 08/M09 A3026 RMK A01 T00791093  RH  028%=      5-min Rain = 0
KCO1 121751Z 11010KT 08/M09 A3026 RMK A01 T00811092  RH  028%=      5-min Rain = 0
KCO1 121752Z 11013KT 08/M09 A3026 RMK A01 T00811093  RH  028%=      5-min Rain = 0
KCO1 121753Z 11014KT 08/M09 A3025 RMK A01 T00821092  RH  028%=      5-min Rain = 0
KCO1 121754Z 11014KT 08/M09 A3025 RMK A01 T00821094  RH  028%=      5-min Rain = 0
KCO1 121755Z 12013KT 08/M10 A3025 RMK A01 T00801096  RH  028%=      5-min Rain = 0
KCO1 121756Z 11010KT 08/M09 A3025 RMK A01 T00791094  RH  028%=      5-min Rain = 0
KCO1 121757Z 10013KT 08/M09 A3025 RMK A01 T00811093  RH  028%=      5-min Rain = 0
KCO1 121758Z 10012KT 08/M09 A3025 RMK A01 T00811094  RH  028%=      5-min Rain = 0
KCO1 121759Z 10013KT 08/M09 A3025 RMK A01 T00811092  RH  028%=      5-min Rain = 0
KCO1 121800Z 10014KT 08/M09 A3025 RMK A01 T00821092  RH  028%=      5-min Rain = 0
KCO1 121801Z 11014KT 08/M09 A3025 RMK A01 T00831092  RH  028%=      5-min Rain = 0
KCO1 121802Z 10014KT 08/M09 A3025 RMK A01 T00821093  RH  028%=      5-min Rain = 0
KCO1 121803Z 09015KT 08/M09 A3025 RMK A01 T00821094  RH  028%=      5-min Rain = 0
KCO1 121804Z 10013KT 08/M09 A3025 RMK A01 T00801094  RH  028%=      5-min Rain = 0
KCO1 121805Z 09013KT 08/M09 A3025 RMK A01 T00821093  RH  028%=      5-min Rain = 0
KCO1 121806Z 11010KT 08/M09 A3025 RMK A01 T00811094  RH  028%=      5-min Rain = 0
KCO1 121807Z 10011G16KT 08/M09 A3025 RMK A01 T00821092  RH  028%=      5-min Rain = 0
KCO1 121808Z 10013KT 09/M09 A3024 RMK A01 T00871088  RH  028%=      5-min Rain = 0
KCO1 121809Z 09012KT 09/M09 A3024 RMK A01 T00891090  RH  027%=      5-min Rain = 0
KCO1 121810Z 09013KT 09/M09 A3024 RMK A01 T00871094  RH  027%=      5-min Rain = 0
KCO1 121811Z 09014G19KT 08/M09 A3024 RMK A01 T00841094  RH  027%=      5-min Rain = 0
KCO1 121812Z 10016KT 09/M09 A3024 RMK A01 T00851091  RH  028%=      5-min Rain = 0
KCO1 121813Z 09013KT 09/M09 A3024 RMK A01 T00851092  RH  028%=      5-min Rain = 0
KCO1 121814Z 10014KT 09/M09 A3024 RMK A01 T00851091  RH  028%=      5-min Rain = 0
KCO1 121815Z 10016KT 08/M09 A3024 RMK A01 T00841093  RH  027%=      5-min Rain = 0
KCO1 121816Z 10012KT 08/M09 A3024 RMK A01 T00831093  RH  028%=      5-min Rain = 0
KCO1 121817Z 09014KT 09/M09 A3024 RMK A01 T00861088  RH  028%=      5-min Rain = 0
KCO1 121818Z 09012KT 09/M09 A3024 RMK A01 T00871089  RH  028%=      5-min Rain = 0
KCO1 121819Z 10009KT 09/M09 A3024 RMK A01 T00871090  RH  028%=      5-min Rain = 0
KCO1 121820Z 09014G20KT 09/M09 A3024 RMK A01 T00881089  RH  028%=      5-min Rain = 0
KCO1 121821Z 09014KT 09/M09 A3024 RMK A01 T00891090  RH  027%=      5-min Rain = 0
KCO1 121822Z 09012KT 09/M09 A3024 RMK A01 T00891091  RH  027%=      5-min Rain = 0
KCO1 121823Z 11012KT 09/M09 A3024 RMK A01 T00891090  RH  027%=      5-min Rain = 0
KCO1 121824Z 11013KT 09/M09 A3024 RMK A01 T00911088  RH  027%=      5-min Rain = 0
KCO1 121825Z 10010KT 09/M09 A3024 RMK A01 T00921088  RH  027%=      5-min Rain = 0
KCO1 121826Z 10012KT 09/M09 A3023 RMK A01 T00921088  RH  027%=      5-min Rain = 0
KCO1 121827Z 10016KT 09/M09 A3024 RMK A01 T00921088  RH  027%=      5-min Rain = 0
KCO1 121828Z 11014KT 09/M09 A3023 RMK A01 T00911090  RH  027%=      5-min Rain = 0
KCO1 121829Z 10011KT 09/M09 A3023 RMK A01 T00891089  RH  027%=      5-min Rain = 0
KCO1 121830Z 10010KT 09/M09 A3023 RMK A01 T00911089  RH  027%=      5-min Rain = 0
KCO1 121831Z 10013KT 09/M09 A3023 RMK A01 T00901091  RH  027%=      5-min Rain = 0
KCO1 121832Z 09013KT 09/M09 A3023 RMK A01 T00891091  RH  027%=      5-min Rain = 0
KCO1 121833Z 11013KT 09/M09 A3023 RMK A01 T00891090  RH  027%=      5-min Rain = 0
KCO1 121834Z 10010KT 09/M09 A3023 RMK A01 T00921085  RH  028%=      5-min Rain = 0
KCO1 121835Z 12013KT 10/M08 A3023 RMK A01 T00971081  RH  028%=      5-min Rain = 0
KCO1 121836Z 12015KT 10/M08 A3023 RMK A01 T01001082  RH  027%=      5-min Rain = 0
KCO1 121837Z 11012KT 10/M09 A3023 RMK A01 T00971087  RH  026%=      5-min Rain = 0
KCO1 121838Z 12010KT 10/M09 A3023 RMK A01 T00951087  RH  027%=      5-min Rain = 0
KCO1 121839Z 13012G17KT 10/M09 A3022 RMK A01 T00951085  RH  027%=      5-min Rain = 0
KCO1 121840Z 13012KT 09/M08 A3022 RMK A01 T00941083  RH  028%=      5-min Rain = 0
KCO1 121841Z 13013KT 10/M08 A3022 RMK A01 T00951081  RH  028%=      5-min Rain = 0
KCO1 121842Z 12010KT 10/M08 A3022 RMK A01 T00991078  RH  028%=      5-min Rain = 0
KCO1 121843Z 10015KT 10/M08 A3022 RMK A01 T00991082  RH  027%=      5-min Rain = 0
KCO1 121844Z 11014KT 10/M09 A3022 RMK A01 T00971087  RH  027%=      5-min Rain = 0
KCO1 121845Z 10016KT 10/M09 A3022 RMK A01 T00951088  RH  026%=      5-min Rain = 0
KCO1 121846Z 11014KT 09/M09 A3022 RMK A01 T00941089  RH  027%=      5-min Rain = 0
KCO1 121847Z 11012KT 09/M09 A3022 RMK A01 T00941088  RH  027%=      5-min Rain = 0
KCO1 121848Z 10009KT 10/M09 A3022 RMK A01 T00951087  RH  027%=      5-min Rain = 0
KCO1 121849Z 09015G20KT 10/M09 A3022 RMK A01 T00971087  RH  027%=      5-min Rain = 0
KCO1 121850Z 12014G19KT 10/M09 A3022 RMK A01 T00961086  RH  027%=      5-min Rain = 0
KCO1 121851Z 11011KT 10/M08 A3022 RMK A01 T00991084  RH  027%=      5-min Rain = 0
KCO1 121852Z 09013KT 10/M09 A3022 RMK A01 T01001086  RH  026%=      5-min Rain = 0
KCO1 121853Z 11010KT 10/M09 A3021 RMK A01 T00991087  RH  026%=      5-min Rain = 0
KCO1 121854Z 10013KT 10/M09 A3021 RMK A01 T00981087  RH  026%=      5-min Rain = 0
KCO1 121855Z 09016KT 10/M09 A3022 RMK A01 T00991086  RH  026%=      5-min Rain = 0
KCO1 121856Z 09011KT 10/M09 A3021 RMK A01 T00981087  RH  026%=      5-min Rain = 0
KCO1 121857Z 09014KT 10/M09 A3021 RMK A01 T00981086  RH  027%=      5-min Rain = 0
KCO1 121858Z 10011G16KT 10/M09 A3021 RMK A01 T00981085  RH  027%=      5-min Rain = 0
KCO1 121859Z 09012KT 10/M08 A3021 RMK A01 T00991084  RH  027%=      5-min Rain = 0
KCO1 121900Z 10015KT 10/M08 A3021 RMK A01 T01011083  RH  026%=      5-min Rain = 0
KCO1 121901Z 10016KT 10/M08 A3021 RMK A01 T01011083  RH  026%=      5-min Rain = 0
KCO1 121902Z 10012KT 10/M08 A3021 RMK A01 T00991084  RH  027%=      5-min Rain = 0
KCO1 121903Z 11013KT 10/M08 A3021 RMK A01 T00991083  RH  027%=      5-min Rain = 0
KCO1 121904Z 11010KT 10/M08 A302 RMK A01 T01001080  RH  027%=      5-min Rain = 0
KCO1 121905Z 10014KT 10/M08 A302 RMK A01 T01021080  RH  027%=      5-min Rain = 0
KCO1 121906Z 08012KT 10/M08 A302 RMK A01 T01021084  RH  026%=      5-min Rain = 0
KCO1 121907Z 09011KT 10/M08 A302 RMK A01 T01021084  RH  026%=      5-min Rain = 0
KCO1 121908Z 08015KT 10/M08 A302 RMK A01 T01041083  RH  026%=      5-min Rain = 0
KCO1 121909Z 09012KT 10/M09 A302 RMK A01 T01021085  RH  026%=      5-min Rain = 0
KCO1 121910Z 08015G20KT 10/M08 A302 RMK A01 T01021084  RH  026%=      5-min Rain = 0
KCO1 121911Z 10010KT 10/M09 A302 RMK A01 T01031085  RH  026%=      5-min Rain = 0
KCO1 121912Z 10013KT 10/M08 A302 RMK A01 T01031084  RH  026%=      5-min Rain = 0
KCO1 121913Z 10015KT 10/M08 A302 RMK A01 T01031084  RH  026%=      5-min Rain = 0
KCO1 121914Z 09015KT 10/M08 A302 RMK A01 T01021083  RH  026%=      5-min Rain = 0
KCO1 121915Z 09013KT 10/M08 A302 RMK A01 T01021082  RH  026%=      5-min Rain = 0
KCO1 121916Z 10010KT 10/M08 A3019 RMK A01 T01031081  RH  027%=      5-min Rain = 0
KCO1 121917Z 10013KT 11/M08 A3019 RMK A01 T01061080  RH  026%=      5-min Rain = 0
KCO1 121918Z 10014KT 11/M08 A3019 RMK A01 T01071080  RH  026%=      5-min Rain = 0
KCO1 121919Z 11014KT 11/M08 A3019 RMK A01 T01061080  RH  026%=      5-min Rain = 0
KCO1 121920Z 11016KT 11/M08 A3019 RMK A01 T01051079  RH  026%=      5-min Rain = 0
KCO1 121921Z 11013G18KT 11/M08 A3019 RMK A01 T01061077  RH  027%=      5-min Rain = 0
KCO1 121922Z 12013KT 11/M08 A3019 RMK A01 T01081077  RH  027%=      5-min Rain = 0
KCO1 121923Z 12011KT 11/M08 A3019 RMK A01 T01061077  RH  027%=      5-min Rain = 0
KCO1 121924Z 12011KT 11/M07 A3019 RMK A01 T01061074  RH  027%=      5-min Rain = 0
KCO1 121925Z 09012KT 11/M08 A3018 RMK A01 T01071075  RH  027%=      5-min Rain = 0
KCO1 121926Z 09015KT 11/M07 A3019 RMK A01 T01101074  RH  027%=      5-min Rain = 0
KCO1 121927Z 09013KT 11/M08 A3019 RMK A01 T01091078  RH  026%=      5-min Rain = 0
KCO1 121928Z 09011KT 11/M08 A3018 RMK A01 T01071077  RH  027%=      5-min Rain = 0
KCO1 121929Z 10011KT 11/M08 A3018 RMK A01 T01081076  RH  027%=      5-min Rain = 0
KCO1 121930Z 10014KT 11/M07 A3018 RMK A01 T01111073  RH  027%=      5-min Rain = 0
KCO1 121931Z 10013KT 11/M07 A3018 RMK A01 T01131074  RH  026%=      5-min Rain = 0
KCO1 121932Z 11014KT 11/M08 A3018 RMK A01 T01111077  RH  026%=      5-min Rain = 0
KCO1 121933Z 10010KT 11/M08 A3018 RMK A01 T01101077  RH  026%=      5-min Rain = 0
KCO1 121934Z 10009KT 11/M08 A3018 RMK A01 T01091078  RH  026%=      5-min Rain = 0
KCO1 121935Z 11011KT 11/M08 A3018 RMK A01 T01071078  RH  026%=      5-min Rain = 0
KCO1 121936Z 11012KT 11/M07 A3018 RMK A01 T01091073  RH  027%=      5-min Rain = 0
KCO1 121937Z 11010KT 11/M07 A3018 RMK A01 T01091072  RH  027%=      5-min Rain = 0
KCO1 121938Z 12008KT 11/M07 A3018 RMK A01 T01081071  RH  028%=      5-min Rain = 0
KCO1 121939Z 11007KT 11/M07 A3018 RMK A01 T01091069  RH  028%=      5-min Rain = 0
KCO1 121940Z 08011KT 11/M07 A3018 RMK A01 T01121069  RH  028%=      5-min Rain = 0
KCO1 121941Z 08012G17KT 11/M07 A3018 RMK A01 T01131073  RH  026%=      5-min Rain = 0
KCO1 121942Z 09010KT 11/M07 A3017 RMK A01 T01141073  RH  026%=      5-min Rain = 0
KCO1 121943Z 12013KT 12/M07 A3017 RMK A01 T01181070  RH  026%=      5-min Rain = 0
KCO1 121944Z 11014KT 12/M07 A3017 RMK A01 T01181071  RH  026%=      5-min Rain = 0
KCO1 121945Z 11012KT 12/M07 A3017 RMK A01 T01161072  RH  026%=      5-min Rain = 0
KCO1 121946Z 11012KT 11/M07 A3017 RMK A01 T01141073  RH  026%=      5-min Rain = 0
KCO1 121947Z 10010KT 11/M08 A3017 RMK A01 T01121075  RH  026%=      5-min Rain = 0
KCO1 121948Z 09015KT 11/M07 A3017 RMK A01 T01121074  RH  026%=      5-min Rain = 0
KCO1 121949Z 10011KT 11/M08 A3017 RMK A01 T01121075  RH  026%=      5-min Rain = 0
KCO1 121950Z 10008KT 11/M08 A3017 RMK A01 T01121075  RH  026%=      5-min Rain = 0
KCO1 121951Z 09010KT 12/M07 A3017 RMK A01 T01161072  RH  026%=      5-min Rain = 0
KCO1 121952Z 10010KT 12/M07 A3017 RMK A01 T01181071  RH  026%=      5-min Rain = 0
KCO1 121953Z 11010KT 12/M07 A3017 RMK A01 T01171071  RH  026%=      5-min Rain = 0
KCO1 121954Z 12011KT 12/M07 A3017 RMK A01 T01161071  RH  026%=      5-min Rain = 0
KCO1 121955Z 11011KT 12/M07 A3017 RMK A01 T01151071  RH  026%=      5-min Rain = 0
KCO1 121956Z 10010KT 12/M07 A3017 RMK A01 T01151072  RH  026%=      5-min Rain = 0
KCO1 121957Z 11008KT 11/M07 A3016 RMK A01 T01141073  RH  026%=      5-min Rain = 0
KCO1 121958Z 10010G16KT 12/M07 A3016 RMK A01 T01161071  RH  026%=      5-min Rain = 0
KCO1 121959Z 09013KT 12/M07 A3016 RMK A01 T01171072  RH  026%=      5-min Rain = 0
KCO1 122000Z 09013KT 12/M07 A3016 RMK A01 T01181072  RH  026%=      5-min Rain = 0
KCO1 122001Z 09011KT 12/M08 A3016 RMK A01 T01161075  RH  026%=      5-min Rain = 0
KCO1 122002Z 10010G15KT 12/M07 A3016 RMK A01 T01161072  RH  026%=      5-min Rain = 0
KCO1 122003Z 11016G21KT 12/M07 A3016 RMK A01 T01191070  RH  026%=      5-min Rain = 0
KCO1 122004Z 10012KT 12/M07 A3016 RMK A01 T01181071  RH  026%=      5-min Rain = 0
KCO1 122005Z 09008KT 12/M07 A3016 RMK A01 T01171071  RH  026%=      5-min Rain = 0
KCO1 122006Z 09008KT 12/M07 A3016 RMK A01 T01161070  RH  027%=      5-min Rain = 0
KCO1 122007Z 09015KT 12/M07 A3016 RMK A01 T01201069  RH  026%=      5-min Rain = 0
KCO1 122008Z 08010KT 12/M07 A3016 RMK A01 T01201073  RH  025%=      5-min Rain = 0
KCO1 122009Z 08011KT 12/M07 A3015 RMK A01 T01181073  RH  026%=      5-min Rain = 0
KCO1 122010Z 09012G17KT 12/M07 A3015 RMK A01 T01211070  RH  026%=      5-min Rain = 0
KCO1 122011Z 10011KT 12/M07 A3015 RMK A01 T01241068  RH  026%=      5-min Rain = 0
KCO1 122012Z 09012KT 12/M07 A3015 RMK A01 T01221070  RH  026%=      5-min Rain = 0
KCO1 122013Z 09011KT 12/M07 A3015 RMK A01 T01201071  RH  026%=      5-min Rain = 0
KCO1 122014Z 09010KT 12/M07 A3015 RMK A01 T01191071  RH  026%=      5-min Rain = 0
KCO1 122015Z 10012KT 12/M07 A3015 RMK A01 T01221068  RH  026%=      5-min Rain = 0
KCO1 122016Z 10013KT 13/M07 A3015 RMK A01 T01251067  RH  026%=      5-min Rain = 0
KCO1 122017Z 11010KT 12/M07 A3015 RMK A01 T01241067  RH  026%=      5-min Rain = 0
KCO1 122018Z 09013KT 12/M07 A3015 RMK A01 T01241066  RH  026%=      5-min Rain = 0
KCO1 122019Z 09013KT 13/M07 A3015 RMK A01 T01251069  RH  025%=      5-min Rain = 0
KCO1 122020Z 08010KT 12/M07 A3015 RMK A01 T01221072  RH  025%=      5-min Rain = 0
KCO1 122021Z 08011KT 12/M07 A3015 RMK A01 T01201072  RH  026%=      5-min Rain = 0
KCO1 122022Z 08014KT 12/M07 A3015 RMK A01 T01231067  RH  026%=      5-min Rain = 0
KCO1 122023Z 09013KT 13/M07 A3015 RMK A01 T01251068  RH  025%=      5-min Rain = 0
KCO1 122024Z 10014KT 12/M07 A3015 RMK A01 T01241068  RH  026%=      5-min Rain = 0
KCO1 122025Z 10010KT 12/M07 A3014 RMK A01 T01231068  RH  026%=      5-min Rain = 0
KCO1 122026Z 09011KT 12/M07 A3014 RMK A01 T01211068  RH  026%=      5-min Rain = 0
KCO1 122027Z 08014KT 12/M07 A3014 RMK A01 T01221069  RH  026%=      5-min Rain = 0
KCO1 122028Z 09014KT 12/M07 A3014 RMK A01 T01221071  RH  025%=      5-min Rain = 0
KCO1 122029Z 09012KT 12/M07 A3014 RMK A01 T01221069  RH  026%=      5-min Rain = 0
KCO1 122030Z 10012KT 12/M07 A3014 RMK A01 T01221067  RH  026%=      5-min Rain = 0
KCO1 122031Z 10013KT 12/M07 A3014 RMK A01 T01221067  RH  026%=      5-min Rain = 0
KCO1 122032Z 12011KT 12/M07 A3014 RMK A01 T01231066  RH  026%=      5-min Rain = 0
KCO1 122033Z 10008KT 12/M07 A3014 RMK A01 T01231066  RH  026%=      5-min Rain = 0
KCO1 122034Z 09012KT 12/M07 A3014 RMK A01 T01241065  RH  026%=      5-min Rain = 0
KCO1 122035Z 09013KT 12/M07 A3014 RMK A01 T01241065  RH  026%=      5-min Rain = 0
KCO1 122036Z 09013KT 12/M07 A3014 RMK A01 T01231065  RH  026%=      5-min Rain = 0
KCO1 122037Z 12012KT 13/M07 A3014 RMK A01 T01251065  RH  026%=      5-min Rain = 0
KCO1 122038Z 11010G15KT 13/M07 A3014 RMK A01 T01251065  RH  026%=      5-min Rain = 0
KCO1 122039Z 10012KT 13/M06 A3014 RMK A01 T01271064  RH  026%=      5-min Rain = 0
KCO1 122040Z 08009KT 13/M07 A3014 RMK A01 T01281065  RH  025%=      5-min Rain = 0
KCO1 122041Z 08012KT 13/M07 A3014 RMK A01 T01271066  RH  025%=      5-min Rain = 0
KCO1 122042Z 10011G16KT 13/M07 A3014 RMK A01 T01271065  RH  026%=      5-min Rain = 0
KCO1 122043Z 11012KT 13/M06 A3014 RMK A01 T01291064  RH  025%=      5-min Rain = 0
KCO1 122044Z 09012KT 13/M07 A3014 RMK A01 T01291066  RH  025%=      5-min Rain = 0
KCO1 122045Z 08009KT 13/M07 A3014 RMK A01 T01281066  RH  025%=      5-min Rain = 0
KCO1 122046Z 09010KT 13/M07 A3014 RMK A01 T01291066  RH  025%=      5-min Rain = 0
KCO1 122047Z 08015KT 13/M07 A3014 RMK A01 T01281066  RH  025%=      5-min Rain = 0
KCO1 122048Z 07012KT 13/M07 A3014 RMK A01 T01251067  RH  026%=      5-min Rain = 0
KCO1 122049Z 08015KT 13/M07 A3014 RMK A01 T01251066  RH  026%=      5-min Rain = 0
KCO1 122050Z 09012KT 13/M06 A3014 RMK A01 T01281064  RH  026%=      5-min Rain = 0
KCO1 122051Z 08011KT 13/M07 A3014 RMK A01 T01291065  RH  025%=      5-min Rain = 0
KCO1 122052Z 08011KT 13/M07 A3013 RMK A01 T01281066  RH  025%=      5-min Rain = 0
KCO1 122053Z 09014KT 13/M07 A3013 RMK A01 T01281066  RH  025%=      5-min Rain = 0
KCO1 122054Z 07013KT 13/M07 A3013 RMK A01 T01271066  RH  025%=      5-min Rain = 0
KCO1 122055Z 09013KT 13/M07 A3013 RMK A01 T01271066  RH  025%=      5-min Rain = 0
KCO1 122056Z 09011KT 13/M07 A3013 RMK A01 T01271066  RH  025%=      5-min Rain = 0
KCO1 122057Z 08012KT 13/M07 A3013 RMK A01 T01281066  RH  025%=      5-min Rain = 0
KCO1 122058Z 08009KT 13/M07 A3013 RMK A01 T01281066  RH  025%=      5-min Rain = 0
KCO1 122059Z 09012KT 13/M06 A3013 RMK A01 T01291064  RH  025%=      5-min Rain = 0
KCO1 122100Z 07011KT 13/M06 A3013 RMK A01 T01331062  RH  025%=      5-min Rain = 0
KCO1 122101Z 08011KT 13/M06 A3013 RMK A01 T01341064  RH  025%=      5-min Rain = 0
KCO1 122102Z 09012G17KT 13/M06 A3013 RMK A01 T01331064  RH  025%=      5-min Rain = 0
KCO1 122103Z 09012KT 14/M06 A3013 RMK A01 T01351063  RH  025%=      5-min Rain = 0
KCO1 122104Z 10011KT 13/M07 A3013 RMK A01 T01331065  RH  025%=      5-min Rain = 0
KCO1 122105Z 09012KT 13/M06 A3013 RMK A01 T01321064  RH  025%=      5-min Rain = 0
KCO1 122106Z 09014KT 13/M06 A3013 RMK A01 T01341063  RH  025%=      5-min Rain = 0
KCO1 122107Z 09013KT 13/M07 A3013 RMK A01 T01331065  RH  025%=      5-min Rain = 0
KCO1 122108Z 08013KT 13/M07 A3013 RMK A01 T01321066  RH  025%=      5-min Rain = 0
KCO1 122109Z 09012KT 13/M07 A3013 RMK A01 T01311066  RH  025%=      5-min Rain = 0
KCO1 122110Z 09015KT 13/M07 A3013 RMK A01 T01291067  RH  025%=      5-min Rain = 0
KCO1 122111Z 09013KT 13/M07 A3013 RMK A01 T01291066  RH  025%=      5-min Rain = 0
KCO1 122112Z 09012KT 13/M07 A3013 RMK A01 T01291066  RH  025%=      5-min Rain = 0
KCO1 122113Z 10011G16KT 13/M07 A3013 RMK A01 T01291065  RH  025%=      5-min Rain = 0
KCO1 122114Z 08014KT 13/M07 A3013 RMK A01 T01291066  RH  025%=      5-min Rain = 0
KCO1 122115Z 09012KT 13/M07 A3013 RMK A01 T01281067  RH  025%=      5-min Rain = 0
KCO1 122116Z 09011G16KT 13/M06 A3013 RMK A01 T01301064  RH  025%=      5-min Rain = 0
KCO1 122117Z 08011KT 13/M06 A3013 RMK A01 T01341062  RH  025%=      5-min Rain = 0
KCO1 122118Z 08010KT 13/M07 A3013 RMK A01 T01331066  RH  025%=      5-min Rain = 0
KCO1 122119Z 10011KT 13/M07 A3013 RMK A01 T01301067  RH  025%=      5-min Rain = 0
KCO1 122120Z 10011KT 13/M07 A3013 RMK A01 T01301065  RH  025%=      5-min Rain = 0
KCO1 122121Z 11012KT 13/M06 A3013 RMK A01 T01341061  RH  025%=      5-min Rain = 0
KCO1 122122Z 09010KT 14/M06 A3013 RMK A01 T01361061  RH  025%=      5-min Rain = 0
KCO1 122123Z 09013KT 14/M06 A3013 RMK A01 T01351063  RH  025%=      5-min Rain = 0
KCO1 122124Z 09011KT 13/M06 A3013 RMK A01 T01341064  RH  025%=      5-min Rain = 0
KCO1 122125Z 10012KT 14/M06 A3013 RMK A01 T01351062  RH  025%=      5-min Rain = 0
KCO1 122126Z 10012KT 14/M06 A3013 RMK A01 T01371061  RH  025%=      5-min Rain = 0
KCO1 122127Z 10010KT 14/M06 A3013 RMK A01 T01351061  RH  025%=      5-min Rain = 0
KCO1 122128Z 08010KT 13/M06 A3013 RMK A01 T01341060  RH  025%=      5-min Rain = 0
KCO1 122129Z 08010KT 14/M06 A3013 RMK A01 T01351060  RH  025%=      5-min Rain = 0
KCO1 122130Z 09014KT 14/M06 A3013 RMK A01 T01381060  RH  025%=      5-min Rain = 0
KCO1 122131Z 08015KT 14/M06 A3013 RMK A01 T01411059  RH  025%=      5-min Rain = 0
KCO1 122132Z 08013KT 14/M06 A3013 RMK A01 T01391063  RH  024%=      5-min Rain = 0
KCO1 122133Z 08009KT 14/M06 A3013 RMK A01 T01371062  RH  025%=      5-min Rain = 0
KCO1 122134Z 08012G18KT 14/M06 A3012 RMK A01 T01361062  RH  025%=      5-min Rain = 0
KCO1 122135Z 09014KT 14/M06 A3013 RMK A01 T01371059  RH  025%=      5-min Rain = 0
KCO1 122136Z 10011KT 14/M06 A3013 RMK A01 T01371060  RH  025%=      5-min Rain = 0
KCO1 122137Z 10011KT 14/M06 A3012 RMK A01 T01371060  RH  025%=      5-min Rain = 0
KCO1 122138Z 10013KT 14/M06 A3013 RMK A01 T01381059  RH  025%=      5-min Rain = 0
KCO1 122139Z 09013KT 14/M06 A3013 RMK A01 T01371060  RH  025%=      5-min Rain = 0
KCO1 122140Z 09012KT 14/M06 A3012 RMK A01 T01371060  RH  025%=      5-min Rain = 0
KCO1 122141Z 09012KT 14/M06 A3012 RMK A01 T01371060  RH  025%=      5-min Rain = 0
KCO1 122142Z 09011KT 14/M06 A3012 RMK A01 T01371060  RH  025%=      5-min Rain = 0
KCO1 122143Z 10010KT 14/M06 A3012 RMK A01 T01391058  RH  025%=      5-min Rain = 0
KCO1 122144Z 09012KT 14/M06 A3012 RMK A01 T01401057  RH  025%=      5-min Rain = 0
KCO1 122145Z 10012KT 14/M06 A3012 RMK A01 T01411056  RH  025%=      5-min Rain = 0
KCO1 122146Z 12013KT 14/M06 A3012 RMK A01 T01411057  RH  025%=      5-min Rain = 0
KCO1 122147Z 11013KT 14/M06 A3012 RMK A01 T01401057  RH  025%=      5-min Rain = 0
KCO1 122148Z 09012KT 14/M06 A3012 RMK A01 T01391057  RH  025%=      5-min Rain = 0
KCO1 122149Z 08011KT 14/M06 A3012 RMK A01 T01391057  RH  025%=      5-min Rain = 0
KCO1 122150Z 09010KT 14/M06 A3012 RMK A01 T01391056  RH  025%=      5-min Rain = 0
KCO1 122151Z 10012KT 14/M06 A3012 RMK A01 T01401055  RH  025%=      5-min Rain = 0
KCO1 122152Z 11013KT 14/M06 A3012 RMK A01 T01421055  RH  025%=      5-min Rain = 0
KCO1 122153Z 08013KT 14/M06 A3012 RMK A01 T01401057  RH  025%=      5-min Rain = 0
KCO1 122154Z 08014KT 14/M06 A3012 RMK A01 T01381057  RH  025%=      5-min Rain = 0
KCO1 122155Z 08013KT 14/M06 A3012 RMK A01 T01381056  RH  025%=      5-min Rain = 0
KCO1 122156Z 08014G19KT 14/M06 A3012 RMK A01 T01391056  RH  026%=      5-min Rain = 0
KCO1 122157Z 09012KT 14/M06 A3012 RMK A01 T01391055  RH  026%=      5-min Rain = 0
KCO1 122158Z 10011KT 14/M06 A3012 RMK A01 T01391055  RH  025%=      5-min Rain = 0
KCO1 122159Z 10010KT 14/M06 A3012 RMK A01 T01401055  RH  025%=      5-min Rain = 0
KCO1 122200Z 09014KT 14/M06 A3012 RMK A01 T01411055  RH  025%=      5-min Rain = 0
KCO1 122201Z 08013KT 14/M06 A3012 RMK A01 T01391056  RH  025%=      5-min Rain = 0
KCO1 122202Z 08013G18KT 14/M06 A3012 RMK A01 T01371056  RH  026%=      5-min Rain = 0
KCO1 122203Z 09011KT 14/M06 A3011 RMK A01 T01381055  RH  026%=      5-min Rain = 0
KCO1 122204Z 08012G18KT 14/M06 A3011 RMK A01 T01381055  RH  026%=      5-min Rain = 0
KCO1 122205Z 08013KT 14/M05 A3011 RMK A01 T01411053  RH  026%=      5-min Rain = 0
KCO1 122206Z 08012KT 14/M05 A3011 RMK A01 T01421054  RH  025%=      5-min Rain = 0
KCO1 122207Z 08012KT 14/M06 A3011 RMK A01 T01411055  RH  025%=      5-min Rain = 0
KCO1 122208Z 07012KT 14/M06 A3011 RMK A01 T01401055  RH  026%=      5-min Rain = 0
KCO1 122209Z 08010KT 14/M05 A3012 RMK A01 T01391054  RH  026%=      5-min Rain = 0
KCO1 122210Z 10011KT 14/M05 A3011 RMK A01 T01391053  RH  026%=      5-min Rain = 0
KCO1 122211Z 10011KT 14/M05 A3011 RMK A01 T01401052  RH  026%=      5-min Rain = 0
KCO1 122212Z 09010KT 14/M05 A3011 RMK A01 T01411051  RH  026%=      5-min Rain = 0
KCO1 122213Z 08012G17KT 14/M05 A3011 RMK A01 T01441050  RH  026%=      5-min Rain = 0
KCO1 122214Z 09016KT 15/M05 A3012 RMK A01 T01451051  RH  025%=      5-min Rain = 0
KCO1 122215Z 10012KT 14/M05 A3011 RMK A01 T01431050  RH  026%=      5-min Rain = 0
KCO1 122216Z 09014KT 14/M05 A3011 RMK A01 T01441049  RH  026%=      5-min Rain = 0
KCO1 122217Z 08014KT 14/M05 A3011 RMK A01 T01431051  RH  026%=      5-min Rain = 0
KCO1 122218Z 08010KT 14/M05 A3011 RMK A01 T01411051  RH  026%=      5-min Rain = 0
KCO1 122219Z 09014KT 14/M05 A3011 RMK A01 T01401050  RH  026%=      5-min Rain = 0
KCO1 122220Z 08013KT 14/M05 A3011 RMK A01 T01401049  RH  027%=      5-min Rain = 0
KCO1 122221Z 09014KT 14/M05 A3011 RMK A01 T01421047  RH  027%=      5-min Rain = 0
KCO1 122222Z 11011KT 14/M05 A3011 RMK A01 T01441046  RH  027%=      5-min Rain = 0
KCO1 122223Z 10011KT 15/M05 A3011 RMK A01 T01451045  RH  027%=      5-min Rain = 0
KCO1 122224Z 09014KT 15/M05 A3011 RMK A01 T01451046  RH  026%=      5-min Rain = 0
KCO1 122225Z 08013KT 14/M05 A3011 RMK A01 T01431049  RH  026%=      5-min Rain = 0
KCO1 122226Z 07013KT 14/M05 A3011 RMK A01 T01421047  RH  027%=      5-min Rain = 0
KCO1 122227Z 08013KT 14/M05 A3011 RMK A01 T01441046  RH  027%=      5-min Rain = 0
KCO1 122228Z 08012KT 14/M05 A3011 RMK A01 T01431047  RH  026%=      5-min Rain = 0
KCO1 122229Z 08013KT 14/M05 A3011 RMK A01 T01431047  RH  027%=      5-min Rain = 0
KCO1 122230Z 08012G18KT 14/M05 A3011 RMK A01 T01431047  RH  027%=      5-min Rain = 0
KCO1 122231Z 09016KT 14/M05 A3011 RMK A01 T01431046  RH  027%=      5-min Rain = 0
KCO1 122232Z 09013KT 14/M05 A3011 RMK A01 T01431046  RH  027%=      5-min Rain = 0
KCO1 122233Z 09011KT 14/M05 A3011 RMK A01 T01421046  RH  027%=      5-min Rain = 0
KCO1 122234Z 09011KT 14/M04 A3011 RMK A01 T01421044  RH  027%=      5-min Rain = 0
KCO1 122235Z 09014KT 14/M04 A3011 RMK A01 T01441044  RH  027%=      5-min Rain = 0
KCO1 122236Z 09015KT 14/M05 A3011 RMK A01 T01431045  RH  027%=      5-min Rain = 0
KCO1 122237Z 09015KT 14/M04 A3011 RMK A01 T01431043  RH  027%=      5-min Rain = 0
KCO1 122238Z 10012KT 14/M04 A3011 RMK A01 T01421044  RH  027%=      5-min Rain = 0
KCO1 122239Z 10015KT 14/M04 A3011 RMK A01 T01421044  RH  027%=      5-min Rain = 0
KCO1 122240Z 09014KT 14/M04 A3011 RMK A01 T01411044  RH  027%=      5-min Rain = 0
KCO1 122241Z 09011KT 14/M04 A3011 RMK A01 T01411044  RH  028%=      5-min Rain = 0
KCO1 122242Z 10014KT 14/M04 A3011 RMK A01 T01421042  RH  028%=      5-min Rain = 0
KCO1 122243Z 09015KT 14/M04 A3011 RMK A01 T01431041  RH  028%=      5-min Rain = 0
KCO1 122244Z 08015KT 14/M04 A3011 RMK A01 T01421041  RH  028%=      5-min Rain = 0
KCO1 122245Z 08015KT 14/M04 A3011 RMK A01 T01411041  RH  028%=      5-min Rain = 0
KCO1 122246Z 09016KT 14/M04 A3011 RMK A01 T01401040  RH  028%=      5-min Rain = 0
KCO1 122247Z 08013KT 14/M04 A3011 RMK A01 T01401040  RH  029%=      5-min Rain = 0
KCO1 122248Z 08012KT 14/M04 A3011 RMK A01 T01401040  RH  029%=      5-min Rain = 0
KCO1 122249Z 08010KT 14/M04 A3011 RMK A01 T01401039  RH  029%=      5-min Rain = 0
KCO1 122250Z 09014KT 14/M04 A3011 RMK A01 T01431038  RH  028%=      5-min Rain = 0
KCO1 122251Z 08015KT 14/M04 A3011 RMK A01 T01431039  RH  028%=      5-min Rain = 0
KCO1 122252Z 09016KT 14/M04 A3011 RMK A01 T01431039  RH  028%=      5-min Rain = 0
KCO1 122253Z 09017KT 14/M04 A3011 RMK A01 T01431039  RH  028%=      5-min Rain = 0
KCO1 122254Z 09015KT 14/M04 A3011 RMK A01 T01421038  RH  028%=      5-min Rain = 0
KCO1 122255Z 10011KT 14/M04 A3011 RMK A01 T01421038  RH  028%=      5-min Rain = 0
KCO1 122256Z 09013KT 14/M04 A3011 RMK A01 T01431038  RH  028%=      5-min Rain = 0
KCO1 122257Z 09013KT 14/M04 A3011 RMK A01 T01431037  RH  029%=      5-min Rain = 0
KCO1 122258Z 10012G17KT 14/M04 A3011 RMK A01 T01431035  RH  029%=      5-min Rain = 0
KCO1 122259Z 10015KT 14/M04 A3011 RMK A01 T01431035  RH  029%=      5-min Rain = 0
KCO1 122300Z 09016KT 14/M04 A3011 RMK A01 T01421035  RH  029%=      5-min Rain = 0
KCO1 122301Z 08017KT 14/M04 A3011 RMK A01 T01411035  RH  029%=      5-min Rain = 0
KCO1 122302Z 10015KT 14/M03 A3011 RMK A01 T01401034  RH  030%=      5-min Rain = 0
KCO1 122303Z 10014KT 14/M03 A3011 RMK A01 T01411033  RH  030%=      5-min Rain = 0
KCO1 122304Z 10013KT 14/M03 A3011 RMK A01 T01411033  RH  030%=      5-min Rain = 0
KCO1 122305Z 11015KT 14/M03 A3011 RMK A01 T01411033  RH  030%=      5-min Rain = 0
KCO1 122306Z 10011KT 14/M03 A3011 RMK A01 T01411032  RH  030%=      5-min Rain = 0
KCO1 122307Z 09013KT 14/M03 A3011 RMK A01 T01431031  RH  030%=      5-min Rain = 0
KCO1 122308Z 09014KT 14/M03 A3011 RMK A01 T01431031  RH  030%=      5-min Rain = 0
KCO1 122309Z 08013G18KT 14/M03 A3011 RMK A01 T01421032  RH  030%=      5-min Rain = 0
KCO1 122310Z 08010KT 14/M03 A301 RMK A01 T01421032  RH  030%=      5-min Rain = 0
KCO1 122311Z 08014KT 14/M03 A3011 RMK A01 T01421031  RH  030%=      5-min Rain = 0
KCO1 122312Z 08015KT 14/M03 A3011 RMK A01 T01421031  RH  030%=      5-min Rain = 0
KCO1 122313Z 10014KT 14/M03 A3011 RMK A01 T01421030  RH  030%=      5-min Rain = 0
KCO1 122314Z 10012KT 14/M03 A3011 RMK A01 T01411030  RH  030%=      5-min Rain = 0
KCO1 122315Z 10014KT 14/M03 A3011 RMK A01 T01431029  RH  030%=      5-min Rain = 0
KCO1 122316Z 10015KT 14/M03 A3011 RMK A01 T01421030  RH  030%=      5-min Rain = 0
KCO1 122317Z 10012KT 14/M03 A3011 RMK A01 T01411030  RH  031%=      5-min Rain = 0
KCO1 122318Z 10014KT 14/M03 A3011 RMK A01 T01401029  RH  031%=      5-min Rain = 0
KCO1 122319Z 10014KT 14/M03 A3011 RMK A01 T01411029  RH  031%=      5-min Rain = 0
KCO1 122320Z 09016KT 14/M03 A3011 RMK A01 T01401029  RH  031%=      5-min Rain = 0
KCO1 122321Z 09015KT 14/M03 A3011 RMK A01 T01401030  RH  031%=      5-min Rain = 0
KCO1 122322Z 08013KT 14/M03 A3011 RMK A01 T01391030  RH  031%=      5-min Rain = 0
KCO1 122323Z 09013KT 14/M03 A3011 RMK A01 T01391029  RH  031%=      5-min Rain = 0
KCO1 122324Z 08012KT 14/M03 A3011 RMK A01 T01391029  RH  031%=      5-min Rain = 0
KCO1 122325Z 09010KT 14/M03 A3011 RMK A01 T01401029  RH  031%=      5-min Rain = 0
KCO1 122326Z 09014KT 14/M03 A3011 RMK A01 T01401029  RH  031%=      5-min Rain = 0
KCO1 122327Z 10011G16KT 14/M03 A3011 RMK A01 T01401029  RH  031%=      5-min Rain = 0
KCO1 122328Z 09014KT 14/M03 A3011 RMK A01 T01411029  RH  031%=      5-min Rain = 0
KCO1 122329Z 09014KT 14/M03 A3011 RMK A01 T01411030  RH  031%=      5-min Rain = 0
KCO1 122330Z 09012G17KT 14/M03 A3011 RMK A01 T01401030  RH  031%=      5-min Rain = 0
KCO1 122331Z 09015KT 14/M03 A3011 RMK A01 T01391030  RH  031%=      5-min Rain = 0
KCO1 122332Z 09014KT 14/M03 A3011 RMK A01 T01391030  RH  031%=      5-min Rain = 0
KCO1 122333Z 10014KT 14/M03 A3011 RMK A01 T01391030  RH  031%=      5-min Rain = 0
KCO1 122334Z 10013KT 14/M03 A3011 RMK A01 T01381031  RH  031%=      5-min Rain = 0
KCO1 122335Z 10014KT 14/M03 A3011 RMK A01 T01381030  RH  031%=      5-min Rain = 0
KCO1 122336Z 10014KT 14/M03 A3011 RMK A01 T01381031  RH  031%=      5-min Rain = 0
KCO1 122337Z 09014KT 14/M03 A3011 RMK A01 T01381030  RH  031%=      5-min Rain = 0
KCO1 122338Z 09012KT 14/M03 A3011 RMK A01 T01371030  RH  031%=      5-min Rain = 0
KCO1 122339Z 09014KT 14/M03 A3011 RMK A01 T01371030  RH  031%=      5-min Rain = 0
KCO1 122340Z 10011KT 14/M03 A3011 RMK A01 T01371031  RH  031%=      5-min Rain = 0
KCO1 122341Z 10014KT 14/M03 A3011 RMK A01 T01371030  RH  031%=      5-min Rain = 0
KCO1 122342Z 10015KT 14/M03 A3011 RMK A01 T01371031  RH  031%=      5-min Rain = 0
KCO1 122343Z 10014KT 14/M03 A3011 RMK A01 T01371031  RH  031%=      5-min Rain = 0
KCO1 122344Z 10015KT 14/M03 A3011 RMK A01 T01371031  RH  031%=      5-min Rain = 0
KCO1 122345Z 10012KT 14/M03 A3011 RMK A01 T01361031  RH  031%=      5-min Rain = 0
KCO1 122346Z 10015KT 14/M03 A3011 RMK A01 T01361031  RH  031%=      5-min Rain = 0
KCO1 122347Z 10015KT 14/M03 A3011 RMK A01 T01361031  RH  031%=      5-min Rain = 0
KCO1 122348Z 10014KT 14/M03 A3011 RMK A01 T01351031  RH  031%=      5-min Rain = 0
KCO1 122349Z 10014KT 14/M03 A3011 RMK A01 T01351031  RH  032%=      5-min Rain = 0
KCO1 122350Z 10013KT 14/M03 A3011 RMK A01 T01351030  RH  032%=      5-min Rain = 0
KCO1 122351Z 10015KT 14/M03 A3011 RMK A01 T01351031  RH  032%=      5-min Rain = 0
KCO1 122352Z 10013G19KT 14/M03 A3011 RMK A01 T01351030  RH  032%=      5-min Rain = 0
KCO1 122353Z 09014KT 13/M03 A3011 RMK A01 T01341030  RH  032%=      5-min Rain = 0
KCO1 122354Z 10014G19KT 13/M03 A3011 RMK A01 T01331030  RH  032%=      5-min Rain = 0
KCO1 122355Z 10013KT 13/M03 A3011 RMK A01 T01341030  RH  032%=      5-min Rain = 0
KCO1 122356Z 09015KT 13/M03 A3011 RMK A01 T01331030  RH  032%=      5-min Rain = 0
KCO1 122357Z 10015KT 13/M03 A3011 RMK A01 T01331030  RH  032%=      5-min Rain = 0
KCO1 122358Z 10013G18KT 13/M03 A3011 RMK A01 T01321030  RH  032%=      5-min Rain = 0
KCO1 122359Z 10015G20KT 13/M03 A3011 RMK A01 T01321030  RH  032%=      5-min Rain = 0
KCO1 130000Z 11016KT 13/M03 A3011 RMK A01 T01321030  RH  032%=      5-min Rain = 0
KCO1 130001Z 10014KT 13/M03 A3011 RMK A01 T01321029  RH  033%=      5-min Rain = 0
KCO1 130002Z 10012G18KT 13/M03 A3011 RMK A01 T01311029  RH  033%=      5-min Rain = 0
KCO1 130003Z 10015KT 13/M03 A3011 RMK A01 T01311030  RH  033%=      5-min Rain = 0
KCO1 130004Z 10015KT 13/M03 A3011 RMK A01 T01311029  RH  033%=      5-min Rain = 0
KCO1 130005Z 10014KT 13/M03 A3011 RMK A01 T01301030  RH  033%=      5-min Rain = 0
KCO1 130006Z 09014KT 13/M03 A3011 RMK A01 T01301029  RH  033%=      5-min Rain = 0
KCO1 130007Z 09014KT 13/M03 A3012 RMK A01 T01301030  RH  033%=      5-min Rain = 0
KCO1 130008Z 10011KT 13/M03 A3011 RMK A01 T01291030  RH  033%=      5-min Rain = 0
KCO1 130009Z 09012KT 13/M03 A3011 RMK A01 T01301029  RH  033%=      5-min Rain = 0
KCO1 130010Z 10012G17KT 13/M03 A3011 RMK A01 T01291030  RH  033%=      5-min Rain = 0
KCO1 130011Z 09015KT 13/M03 A3011 RMK A01 T01291030  RH  033%=      5-min Rain = 0
KCO1 130012Z 10015KT 13/M03 A3011 RMK A01 T01281030  RH  033%=      5-min Rain = 0
KCO1 130013Z 10013KT 13/M03 A3011 RMK A01 T01281030  RH  033%=      5-min Rain = 0
KCO1 130014Z 10013KT 13/M03 A3011 RMK A01 T01281030  RH  033%=      5-min Rain = 0
KCO1 130015Z 11016KT 13/M03 A3011 RMK A01 T01271030  RH  033%=      5-min Rain = 0
KCO1 130016Z 10013KT 13/M03 A3011 RMK A01 T01271030  RH  033%=      5-min Rain = 0
KCO1 130017Z 10014KT 13/M03 A3011 RMK A01 T01261030  RH  033%=      5-min Rain = 0
KCO1 130018Z 11016KT 13/M03 A3011 RMK A01 T01261030  RH  034%=      5-min Rain = 0
KCO1 130019Z 10012KT 13/M03 A3011 RMK A01 T01251030  RH  034%=      5-min Rain = 0
KCO1 130020Z 10013KT 13/M03 A3011 RMK A01 T01251030  RH  034%=      5-min Rain = 0
KCO1 130021Z 10012KT 12/M03 A3011 RMK A01 T01241030  RH  034%=      5-min Rain = 0
KCO1 130022Z 10014KT 12/M03 A3011 RMK A01 T01241030  RH  034%=      5-min Rain = 0
KCO1 130023Z 10013KT 12/M03 A3011 RMK A01 T01241030  RH  034%=      5-min Rain = 0
KCO1 130024Z 10016KT 12/M03 A3012 RMK A01 T01231030  RH  034%=      5-min Rain = 0
KCO1 130025Z 10014KT 12/M03 A3011 RMK A01 T01231030  RH  034%=      5-min Rain = 0
KCO1 130026Z 10012KT 12/M03 A3011 RMK A01 T01231030  RH  034%=      5-min Rain = 0
KCO1 130027Z 10013KT 12/M03 A3011 RMK A01 T01221030  RH  034%=      5-min Rain = 0
KCO1 130028Z 10012KT 12/M03 A3012 RMK A01 T01221030  RH  035%=      5-min Rain = 0
KCO1 130029Z 10014KT 12/M03 A3012 RMK A01 T01211031  RH  035%=      5-min Rain = 0
KCO1 130030Z 10014KT 12/M03 A3012 RMK A01 T01201031  RH  035%=      5-min Rain = 0
KCO1 130031Z 10010KT 12/M03 A3012 RMK A01 T01201030  RH  035%=      5-min Rain = 0
KCO1 130032Z 10012KT 12/M03 A3012 RMK A01 T01191031  RH  035%=      5-min Rain = 0
KCO1 130033Z 10014KT 12/M03 A3012 RMK A01 T01181031  RH  035%=      5-min Rain = 0
KCO1 130034Z 10013KT 12/M03 A3012 RMK A01 T01181031  RH  035%=      5-min Rain = 0
KCO1 130035Z 10013KT 12/M03 A3012 RMK A01 T01181031  RH  035%=      5-min Rain = 0
KCO1 130036Z 10012KT 12/M03 A3012 RMK A01 T01171031  RH  035%=      5-min Rain = 0
KCO1 130037Z 10011KT 12/M03 A3012 RMK A01 T01161031  RH  036%=      5-min Rain = 0
KCO1 130038Z 10010KT 12/M03 A3012 RMK A01 T01151031  RH  036%=      5-min Rain = 0
KCO1 130039Z 10013KT 12/M03 A3012 RMK A01 T01151032  RH  036%=      5-min Rain = 0
KCO1 130040Z 10011KT 11/M03 A3012 RMK A01 T01141031  RH  036%=      5-min Rain = 0
KCO1 130041Z 10015KT 11/M03 A3012 RMK A01 T01141031  RH  036%=      5-min Rain = 0
KCO1 130042Z 10013G18KT 11/M03 A3012 RMK A01 T01141031  RH  036%=      5-min Rain = 0
KCO1 130043Z 10015KT 12/M03 A3012 RMK A01 T01151030  RH  036%=      5-min Rain = 0
KCO1 130044Z 10012KT 11/M03 A3012 RMK A01 T01141031  RH  036%=      5-min Rain = 0
KCO1 130045Z 10014KT 11/M03 A3012 RMK A01 T01131031  RH  036%=      5-min Rain = 0
KCO1 130046Z 10012KT 11/M03 A3012 RMK A01 T01131031  RH  036%=      5-min Rain = 0
KCO1 130047Z 10011KT 11/M03 A3012 RMK A01 T01121031  RH  037%=      5-min Rain = 0
KCO1 130048Z 10011KT 11/M03 A3012 RMK A01 T01121031  RH  037%=      5-min Rain = 0
KCO1 130049Z 10012KT 11/M03 A3012 RMK A01 T01121031  RH  037%=      5-min Rain = 0
KCO1 130050Z 10012KT 11/M03 A3012 RMK A01 T01111031  RH  037%=      5-min Rain = 0
KCO1 130051Z 10012KT 11/M03 A3012 RMK A01 T01111031  RH  037%=      5-min Rain = 0
KCO1 130052Z 10010KT 11/M03 A3012 RMK A01 T01101031  RH  037%=      5-min Rain = 0
KCO1 130053Z 10012G17KT 11/M03 A3012 RMK A01 T01101031  RH  037%=      5-min Rain = 0
KCO1 130054Z 10014KT 11/M03 A3012 RMK A01 T01091031  RH  037%=      5-min Rain = 0
KCO1 130055Z 10011KT 11/M03 A3012 RMK A01 T01101031  RH  037%=      5-min Rain = 0
KCO1 130056Z 10014KT 11/M03 A3012 RMK A01 T01101031  RH  037%=      5-min Rain = 0
KCO1 130057Z 10013KT 11/M03 A3012 RMK A01 T01101030  RH  037%=      5-min Rain = 0
KCO1 130058Z 10014KT 11/M03 A3012 RMK A01 T01101031  RH  037%=      5-min Rain = 0
KCO1 130059Z 10011KT 11/M03 A3013 RMK A01 T01091031  RH  037%=      5-min Rain = 0
KCO1 130100Z 10012G17KT 11/M03 A3013 RMK A01 T01091031  RH  037%=      5-min Rain = 0
KCO1 130101Z 10014G19KT 11/M03 A3013 RMK A01 T01081031  RH  037%=      5-min Rain = 0
KCO1 130102Z 10012KT 11/M03 A3013 RMK A01 T01081031  RH  038%=      5-min Rain = 0
KCO1 130103Z 10014KT 11/M03 A3013 RMK A01 T01081031  RH  038%=      5-min Rain = 0
KCO1 130104Z 10012G17KT 11/M03 A3013 RMK A01 T01081031  RH  038%=      5-min Rain = 0
KCO1 130105Z 10012G18KT 11/M03 A3013 RMK A01 T01081032  RH  037%=      5-min Rain = 0
KCO1 130106Z 10014KT 11/M03 A3013 RMK A01 T01071032  RH  038%=      5-min Rain = 0
KCO1 130107Z 10013KT 11/M03 A3013 RMK A01 T01071032  RH  038%=      5-min Rain = 0
KCO1 130108Z 11012KT 11/M03 A3013 RMK A01 T01071032  RH  038%=      5-min Rain = 0
KCO1 130109Z 10013KT 11/M03 A3013 RMK A01 T01061033  RH  038%=      5-min Rain = 0
KCO1 130110Z 11014KT 11/M03 A3013 RMK A01 T01061033  RH  038%=      5-min Rain = 0
KCO1 130111Z 10012KT 11/M03 A3013 RMK A01 T01061032  RH  038%=      5-min Rain = 0
KCO1 130112Z 10013KT 11/M03 A3013 RMK A01 T01061033  RH  038%=      5-min Rain = 0
KCO1 130113Z 10012KT 11/M03 A3013 RMK A01 T01061033  RH  038%=      5-min Rain = 0
KCO1 130114Z 10013KT 11/M03 A3013 RMK A01 T01051033  RH  038%=      5-min Rain = 0
KCO1 130115Z 10014KT 10/M03 A3013 RMK A01 T01041033  RH  038%=      5-min Rain = 0
KCO1 130116Z 10011KT 10/M03 A3013 RMK A01 T01041033  RH  038%=      5-min Rain = 0
KCO1 130117Z 10009KT 10/M03 A3013 RMK A01 T01041033  RH  038%=      5-min Rain = 0
KCO1 130118Z 10010KT 10/M03 A3013 RMK A01 T01021034  RH  038%=      5-min Rain = 0
KCO1 130119Z 10009KT 10/M03 A3013 RMK A01 T01021034  RH  038%=      5-min Rain = 0
KCO1 130120Z 10010KT 10/M03 A3013 RMK A01 T01011034  RH  039%=      5-min Rain = 0
KCO1 130121Z 10009KT 10/M03 A3013 RMK A01 T01011033  RH  039%=      5-min Rain = 0
KCO1 130122Z 10010KT 10/M03 A3013 RMK A01 T01001034  RH  039%=      5-min Rain = 0
KCO1 130123Z 09010KT 10/M03 A3013 RMK A01 T00991034  RH  039%=      5-min Rain = 0
KCO1 130124Z 09009KT 10/M03 A3013 RMK A01 T01001034  RH  039%=      5-min Rain = 0
KCO1 130125Z 09010KT 10/M03 A3013 RMK A01 T00991034  RH  039%=      5-min Rain = 0
KCO1 130126Z 09011KT 10/M03 A3013 RMK A01 T00991034  RH  039%=      5-min Rain = 0
KCO1 130127Z 09010KT 10/M03 A3013 RMK A01 T00991033  RH  039%=      5-min Rain = 0
KCO1 130128Z 09008KT 10/M03 A3013 RMK A01 T00991034  RH  039%=      5-min Rain = 0
KCO1 130129Z 09009KT 10/M03 A3014 RMK A01 T00981034  RH  039%=      5-min Rain = 0
KCO1 130130Z 09009KT 10/M03 A3014 RMK A01 T00971034  RH  040%=      5-min Rain = 0
KCO1 130131Z 09009KT 10/M03 A3014 RMK A01 T00961034  RH  040%=      5-min Rain = 0
KCO1 130132Z 09010KT 10/M03 A3014 RMK A01 T00961034  RH  040%=      5-min Rain = 0
KCO1 130133Z 09011KT 10/M03 A3014 RMK A01 T00961033  RH  040%=      5-min Rain = 0
KCO1 130134Z 09012KT 10/M03 A3014 RMK A01 T00961033  RH  040%=      5-min Rain = 0
KCO1 130135Z 09011KT 10/M03 A3014 RMK A01 T00961033  RH  040%=      5-min Rain = 0
KCO1 130136Z 10010KT 10/M03 A3014 RMK A01 T00971032  RH  040%=      5-min Rain = 0
KCO1 130137Z 09011KT 10/M03 A3014 RMK A01 T00971032  RH  040%=      5-min Rain = 0
KCO1 130138Z 10013KT 10/M03 A3014 RMK A01 T00971033  RH  040%=      5-min Rain = 0
KCO1 130139Z 09011KT 10/M03 A3014 RMK A01 T00971033  RH  040%=      5-min Rain = 0
KCO1 130140Z 09010KT 10/M03 A3014 RMK A01 T00971033  RH  040%=      5-min Rain = 0
KCO1 130141Z 09010KT 10/M03 A3014 RMK A01 T00961033  RH  040%=      5-min Rain = 0
KCO1 130142Z 09010KT 10/M03 A3014 RMK A01 T00961033  RH  040%=      5-min Rain = 0
KCO1 130143Z 09011KT 10/M03 A3014 RMK A01 T00961032  RH  040%=      5-min Rain = 0
KCO1 130144Z 09010KT 10/M03 A3014 RMK A01 T00951032  RH  041%=      5-min Rain = 0
KCO1 130145Z 09011KT 10/M03 A3014 RMK A01 T00951033  RH  041%=      5-min Rain = 0
KCO1 130146Z 08009KT 09/M03 A3014 RMK A01 T00941033  RH  041%=      5-min Rain = 0
KCO1 130147Z 08010KT 09/M03 A3014 RMK A01 T00931034  RH  041%=      5-min Rain = 0
KCO1 130148Z 08012KT 09/M03 A3014 RMK A01 T00931034  RH  041%=      5-min Rain = 0
KCO1 130149Z 09012KT 09/M03 A3014 RMK A01 T00931034  RH  041%=      5-min Rain = 0
KCO1 130150Z 09012G17KT 09/M03 A3014 RMK A01 T00931034  RH  041%=      5-min Rain = 0
KCO1 130151Z 09011KT 09/M03 A3014 RMK A01 T00931033  RH  041%=      5-min Rain = 0
KCO1 130152Z 09011KT 09/M03 A3014 RMK A01 T00931033  RH  041%=      5-min Rain = 0
KCO1 130153Z 09013KT 09/M03 A3014 RMK A01 T00931033  RH  041%=      5-min Rain = 0
KCO1 130154Z 09012KT 09/M03 A3014 RMK A01 T00931033  RH  041%=      5-min Rain = 0
KCO1 130155Z 10012KT 09/M03 A3014 RMK A01 T00931033  RH  041%=      5-min Rain = 0
KCO1 130156Z 10012KT 09/M03 A3014 RMK A01 T00931033  RH  041%=      5-min Rain = 0
KCO1 130157Z 10010KT 09/M03 A3014 RMK A01 T00931033  RH  041%=      5-min Rain = 0
KCO1 130158Z 10009KT 09/M03 A3014 RMK A01 T00921034  RH  041%=      5-min Rain = 0
KCO1 130159Z 10010KT 09/M03 A3014 RMK A01 T00911034  RH  041%=      5-min Rain = 0
KCO1 130200Z 10011KT 09/M03 A3014 RMK A01 T00911034  RH  041%=      5-min Rain = 0
KCO1 130201Z 10013KT 09/M03 A3014 RMK A01 T00901034  RH  041%=      5-min Rain = 0
KCO1 130202Z 10013KT 09/M03 A3014 RMK A01 T00901034  RH  041%=      5-min Rain = 0
KCO1 130203Z 10012KT 09/M03 A3014 RMK A01 T00911033  RH  041%=      5-min Rain = 0
KCO1 130204Z 10012KT 09/M03 A3014 RMK A01 T00911033  RH  041%=      5-min Rain = 0
KCO1 130205Z 10012KT 09/M03 A3014 RMK A01 T00901034  RH  041%=      5-min Rain = 0
KCO1 130206Z 10011G16KT 09/M03 A3014 RMK A01 T00901034  RH  042%=      5-min Rain = 0
KCO1 130207Z 10011KT 09/M03 A3014 RMK A01 T00901034  RH  042%=      5-min Rain = 0
KCO1 130208Z 10013KT 09/M03 A3014 RMK A01 T00891034  RH  042%=      5-min Rain = 0
KCO1 130209Z 10012KT 09/M03 A3014 RMK A01 T00891034  RH  042%=      5-min Rain = 0
KCO1 130210Z 10010KT 09/M03 A3014 RMK A01 T00891034  RH  042%=      5-min Rain = 0
KCO1 130211Z 10011KT 09/M03 A3015 RMK A01 T00891034  RH  042%=      5-min Rain = 0
KCO1 130212Z 10010KT 09/M03 A3015 RMK A01 T00891034  RH  042%=      5-min Rain = 0
KCO1 130213Z 10010KT 09/M03 A3015 RMK A01 T00881034  RH  042%=      5-min Rain = 0
KCO1 130214Z 09012KT 09/M03 A3015 RMK A01 T00871034  RH  042%=      5-min Rain = 0
KCO1 130215Z 09010KT 09/M03 A3015 RMK A01 T00871034  RH  042%=      5-min Rain = 0
KCO1 130216Z 09010KT 09/M03 A3015 RMK A01 T00871034  RH  042%=      5-min Rain = 0
KCO1 130217Z 10009KT 09/M03 A3015 RMK A01 T00871034  RH  042%=      5-min Rain = 0
KCO1 130218Z 10010KT 09/M03 A3015 RMK A01 T00871034  RH  042%=      5-min Rain = 0
KCO1 130219Z 10010KT 09/M04 A3015 RMK A01 T00861035  RH  042%=      5-min Rain = 0
KCO1 130220Z 10009KT 09/M04 A3015 RMK A01 T00851035  RH  043%=      5-min Rain = 0
KCO1 130221Z 10009G14KT 09/M03 A3015 RMK A01 T00861034  RH  043%=      5-min Rain = 0
KCO1 130222Z 10011KT 09/M04 A3015 RMK A01 T00851035  RH  043%=      5-min Rain = 0
KCO1 130223Z 11013KT 09/M03 A3015 RMK A01 T00851034  RH  043%=      5-min Rain = 0
KCO1 130224Z 10013KT 09/M03 A3015 RMK A01 T00861034  RH  043%=      5-min Rain = 0
KCO1 130225Z 10013KT 09/M03 A3015 RMK A01 T00861034  RH  043%=      5-min Rain = 0
KCO1 130226Z 10013KT 09/M03 A3015 RMK A01 T00871033  RH  043%=      5-min Rain = 0
KCO1 130227Z 10014KT 09/M03 A3015 RMK A01 T00871034  RH  042%=      5-min Rain = 0
KCO1 130228Z 10012KT 09/M03 A3015 RMK A01 T00871034  RH  042%=      5-min Rain = 0
KCO1 130229Z 10012KT 09/M03 A3015 RMK A01 T00871034  RH  042%=      5-min Rain = 0
KCO1 130230Z 11009KT 09/M03 A3015 RMK A01 T00871034  RH  042%=      5-min Rain = 0
KCO1 130231Z 10013KT 09/M04 A3015 RMK A01 T00851035  RH  043%=      5-min Rain = 0
KCO1 130232Z 10014KT 09/M03 A3015 RMK A01 T00851034  RH  043%=      5-min Rain = 0
KCO1 130233Z 10012G17KT 09/M03 A3015 RMK A01 T00861033  RH  043%=      5-min Rain = 0
KCO1 130234Z 10013KT 09/M03 A3015 RMK A01 T00861034  RH  043%=      5-min Rain = 0
KCO1 130235Z 10012KT 09/M03 A3015 RMK A01 T00861034  RH  043%=      5-min Rain = 0
KCO1 130236Z 10012KT 09/M03 A3015 RMK A01 T00851034  RH  043%=      5-min Rain = 0
KCO1 130237Z 10011KT 09/M03 A3015 RMK A01 T00851034  RH  043%=      5-min Rain = 0
KCO1 130238Z 10011KT 08/M03 A3015 RMK A01 T00841034  RH  043%=      5-min Rain = 0
KCO1 130239Z 10012KT 08/M03 A3015 RMK A01 T00841034  RH  043%=      5-min Rain = 0
KCO1 130240Z 10011KT 08/M03 A3015 RMK A01 T00841034  RH  043%=      5-min Rain = 0
KCO1 130241Z 10011KT 08/M03 A3015 RMK A01 T00841034  RH  043%=      5-min Rain = 0
KCO1 130242Z 10011KT 08/M03 A3015 RMK A01 T00841034  RH  043%=      5-min Rain = 0
KCO1 130243Z 10011KT 08/M03 A3015 RMK A01 T00841034  RH  043%=      5-min Rain = 0
KCO1 130244Z 10011KT 08/M03 A3015 RMK A01 T00831034  RH  043%=      5-min Rain = 0
KCO1 130245Z 10011KT 08/M03 A3015 RMK A01 T00831034  RH  043%=      5-min Rain = 0
KCO1 130246Z 09010KT 08/M03 A3015 RMK A01 T00831034  RH  043%=      5-min Rain = 0
KCO1 130247Z 09009KT 08/M04 A3015 RMK A01 T00821035  RH  044%=      5-min Rain = 0
KCO1 130248Z 09011KT 08/M04 A3015 RMK A01 T00811035  RH  044%=      5-min Rain = 0
KCO1 130249Z 09010KT 08/M04 A3016 RMK A01 T00811035  RH  044%=      5-min Rain = 0
KCO1 130250Z 09009KT 08/M04 A3015 RMK A01 T00811035  RH  044%=      5-min Rain = 0
KCO1 130251Z 09011KT 08/M04 A3015 RMK A01 T00801035  RH  044%=      5-min Rain = 0
KCO1 130252Z 10010KT 08/M04 A3015 RMK A01 T00791035  RH  044%=      5-min Rain = 0
KCO1 130253Z 09011KT 08/M04 A3016 RMK A01 T00791035  RH  044%=      5-min Rain = 0
KCO1 130254Z 10011KT 08/M03 A3015 RMK A01 T00791034  RH  045%=      5-min Rain = 0
KCO1 130255Z 09011KT 08/M03 A3015 RMK A01 T00791034  RH  045%=      5-min Rain = 0
KCO1 130256Z 10012KT 08/M03 A3015 RMK A01 T00791034  RH  045%=      5-min Rain = 0
KCO1 130257Z 10012KT 08/M03 A3015 RMK A01 T00791034  RH  045%=      5-min Rain = 0
KCO1 130258Z 10014KT 08/M03 A3015 RMK A01 T00791034  RH  045%=      5-min Rain = 0
KCO1 130259Z 10011KT 08/M03 A3015 RMK A01 T00801034  RH  044%=      5-min Rain = 0
KCO1 130300Z 10012KT 08/M04 A3015 RMK A01 T00801035  RH  044%=      5-min Rain = 0
KCO1 130301Z 10012KT 08/M04 A3015 RMK A01 T00801035  RH  044%=      5-min Rain = 0
KCO1 130302Z 10011KT 08/M04 A3015 RMK A01 T00801035  RH  044%=      5-min Rain = 0
KCO1 130303Z 10012KT 08/M03 A3015 RMK A01 T00801034  RH  044%=      5-min Rain = 0
KCO1 130304Z 11012G19KT 08/M03 A3015 RMK A01 T00801034  RH  044%=      5-min Rain = 0
KCO1 130305Z 10013KT 08/M03 A3015 RMK A01 T00791034  RH  044%=      5-min Rain = 0
KCO1 130306Z 10012KT 08/M03 A3015 RMK A01 T00791034  RH  044%=      5-min Rain = 0
KCO1 130307Z 10013KT 08/M03 A3015 RMK A01 T00791034  RH  044%=      5-min Rain = 0
KCO1 130308Z 10013KT 08/M03 A3016 RMK A01 T00791034  RH  044%=      5-min Rain = 0
KCO1 130309Z 11012KT 08/M04 A3016 RMK A01 T00791035  RH  044%=      5-min Rain = 0
KCO1 130310Z 10012KT 08/M04 A3016 RMK A01 T00791035  RH  044%=      5-min Rain = 0
KCO1 130311Z 10012KT 08/M04 A3016 RMK A01 T00791035  RH  044%=      5-min Rain = 0
KCO1 130312Z 10013KT 08/M04 A3016 RMK A01 T00781035  RH  045%=      5-min Rain = 0
KCO1 130313Z 10011KT 08/M03 A3016 RMK A01 T00791034  RH  045%=      5-min Rain = 0
KCO1 130314Z 11013KT 08/M04 A3016 RMK A01 T00781035  RH  044%=      5-min Rain = 0
KCO1 130315Z 10014KT 08/M04 A3016 RMK A01 T00781035  RH  045%=      5-min Rain = 0
KCO1 130316Z 10012KT 08/M04 A3016 RMK A01 T00791035  RH  045%=      5-min Rain = 0
KCO1 130317Z 10011KT 08/M04 A3016 RMK A01 T00791035  RH  044%=      5-min Rain = 0
KCO1 130318Z 10013G18KT 08/M04 A3016 RMK A01 T00781035  RH  045%=      5-min Rain = 0
KCO1 130319Z 11015KT 08/M04 A3016 RMK A01 T00781035  RH  045%=      5-min Rain = 0
KCO1 130320Z 11013KT 08/M04 A3016 RMK A01 T00781035  RH  045%=      5-min Rain = 0
KCO1 130321Z 11014KT 08/M04 A3016 RMK A01 T00781035  RH  045%=      5-min Rain = 0
KCO1 130322Z 11014KT 08/M04 A3016 RMK A01 T00791035  RH  044%=      5-min Rain = 0
KCO1 130323Z 11013KT 08/M04 A3016 RMK A01 T00791035  RH  044%=      5-min Rain = 0
KCO1 130324Z 10014KT 08/M04 A3016 RMK A01 T00791035  RH  044%=      5-min Rain = 0
KCO1 130325Z 10013KT 08/M04 A3016 RMK A01 T00791035  RH  044%=      5-min Rain = 0
KCO1 130326Z 11013G20KT 08/M04 A3016 RMK A01 T00791035  RH  044%=      5-min Rain = 0
KCO1 130327Z 11013G19KT 08/M04 A3016 RMK A01 T00791035  RH  044%=      5-min Rain = 0
KCO1 130328Z 11014G21KT 08/M04 A3016 RMK A01 T00791035  RH  044%=      5-min Rain = 0
KCO1 130329Z 11016KT 08/M04 A3016 RMK A01 T00791035  RH  044%=      5-min Rain = 0
KCO1 130330Z 11013KT 08/M04 A3016 RMK A01 T00791035  RH  044%=      5-min Rain = 0
KCO1 130331Z 11016KT 08/M04 A3016 RMK A01 T00791035  RH  044%=      5-min Rain = 0
KCO1 130332Z 11013KT 08/M04 A3016 RMK A01 T00791035  RH  044%=      5-min Rain = 0
KCO1 130333Z 11013G19KT 08/M04 A3016 RMK A01 T00791036  RH  044%=      5-min Rain = 0
KCO1 130334Z 11015KT 08/M04 A3016 RMK A01 T00791036  RH  044%=      5-min Rain = 0
KCO1 130335Z 11015G21KT 08/M04 A3016 RMK A01 T00791035  RH  044%=      5-min Rain = 0
KCO1 130336Z 11013KT 08/M04 A3016 RMK A01 T00781036  RH  044%=      5-min Rain = 0
KCO1 130337Z 11014KT 08/M04 A3016 RMK A01 T00781036  RH  044%=      5-min Rain = 0
KCO1 130338Z 11014G19KT 08/M04 A3016 RMK A01 T00771036  RH  045%=      5-min Rain = 0
KCO1 130339Z 11016KT 08/M04 A3016 RMK A01 T00771036  RH  045%=      5-min Rain = 0
KCO1 130340Z 11014G19KT 08/M04 A3016 RMK A01 T00771036  RH  045%=      5-min Rain = 0
KCO1 130341Z 11015KT 08/M04 A3016 RMK A01 T00771036  RH  045%=      5-min Rain = 0
KCO1 130342Z 11015G21KT 08/M04 A3016 RMK A01 T00771036  RH  045%=      5-min Rain = 0
KCO1 130343Z 11014KT 08/M04 A3016 RMK A01 T00771036  RH  045%=      5-min Rain = 0
KCO1 130344Z 11015KT 08/M04 A3016 RMK A01 T00771036  RH  045%=      5-min Rain = 0
KCO1 130345Z 11014KT 08/M04 A3016 RMK A01 T00771036  RH  045%=      5-min Rain = 0
KCO1 130346Z 11013KT 08/M04 A3016 RMK A01 T00771036  RH  045%=      5-min Rain = 0
KCO1 130347Z 11013G18KT 08/M04 A3016 RMK A01 T00761036  RH  045%=      5-min Rain = 0
KCO1 130348Z 11015KT 08/M04 A3016 RMK A01 T00761037  RH  045%=      5-min Rain = 0
KCO1 130349Z 11014KT 08/M04 A3016 RMK A01 T00751037  RH  045%=      5-min Rain = 0
KCO1 130350Z 11013KT 08/M04 A3016 RMK A01 T00751037  RH  045%=      5-min Rain = 0
KCO1 130351Z 11016KT 08/M04 A3016 RMK A01 T00751036  RH  045%=      5-min Rain = 0
KCO1 130352Z 12014KT 08/M04 A3016 RMK A01 T00751036  RH  045%=      5-min Rain = 0
KCO1 130353Z 11014KT 08/M04 A3016 RMK A01 T00751036  RH  045%=      5-min Rain = 0
KCO1 130354Z 11015KT 08/M04 A3016 RMK A01 T00751037  RH  045%=      5-min Rain = 0
KCO1 130355Z 11013KT 08/M04 A3016 RMK A01 T00751037  RH  045%=      5-min Rain = 0
KCO1 130356Z 11014G20KT 07/M04 A3016 RMK A01 T00741037  RH  045%=      5-min Rain = 0
KCO1 130357Z 12012KT 07/M04 A3016 RMK A01 T00741037  RH  045%=      5-min Rain = 0
KCO1 130358Z 11012G17KT 07/M04 A3016 RMK A01 T00741037  RH  045%=      5-min Rain = 0
KCO1 130359Z 12014KT 07/M04 A3016 RMK A01 T00741037  RH  045%=      5-min Rain = 0
KCO1 130400Z 11014KT 07/M04 A3016 RMK A01 T00741037  RH  045%=      5-min Rain = 0
KCO1 130401Z 11013G19KT 07/M04 A3016 RMK A01 T00741037  RH  045%=      5-min Rain = 0
KCO1 130402Z 11014G22KT 07/M04 A3016 RMK A01 T00741037  RH  045%=      5-min Rain = 0
KCO1 130403Z 11016G22KT 08/M04 A3016 RMK A01 T00751037  RH  045%=      5-min Rain = 0
KCO1 130404Z 11015KT 08/M04 A3016 RMK A01 T00751037  RH  045%=      5-min Rain = 0
KCO1 130405Z 11013KT 08/M04 A3016 RMK A01 T00751037  RH  045%=      5-min Rain = 0
KCO1 130406Z 11013KT 08/M04 A3016 RMK A01 T00751037  RH  045%=      5-min Rain = 0
KCO1 130407Z 11013KT 08/M04 A3016 RMK A01 T00751037  RH  045%=      5-min Rain = 0
KCO1 130408Z 11015G20KT 08/M04 A3016 RMK A01 T00751037  RH  045%=      5-min Rain = 0
KCO1 130409Z 11018KT 08/M04 A3016 RMK A01 T00751037  RH  045%=      5-min Rain = 0
KCO1 130410Z 11017KT 08/M04 A3016 RMK A01 T00761037  RH  045%=      5-min Rain = 0
KCO1 130411Z 11014KT 08/M04 A3016 RMK A01 T00761037  RH  045%=      5-min Rain = 0
KCO1 130412Z 11015KT 08/M04 A3016 RMK A01 T00761037  RH  045%=      5-min Rain = 0
KCO1 130413Z 11017KT 08/M04 A3016 RMK A01 T00761037  RH  045%=      5-min Rain = 0
KCO1 130414Z 11014KT 08/M04 A3017 RMK A01 T00761037  RH  045%=      5-min Rain = 0
KCO1 130415Z 11013KT 08/M04 A3017 RMK A01 T00761037  RH  045%=      5-min Rain = 0
KCO1 130416Z 11015KT 08/M04 A3017 RMK A01 T00761037  RH  045%=      5-min Rain = 0
KCO1 130417Z 11014G20KT 08/M04 A3017 RMK A01 T00761036  RH  045%=      5-min Rain = 0
KCO1 130418Z 11012G17KT 08/M04 A3017 RMK A01 T00761037  RH  045%=      5-min Rain = 0
KCO1 130419Z 11014KT 08/M04 A3017 RMK A01 T00751037  RH  045%=      5-min Rain = 0
KCO1 130420Z 11015G21KT 08/M04 A3017 RMK A01 T00751037  RH  045%=      5-min Rain = 0
KCO1 130421Z 11015KT 08/M04 A3017 RMK A01 T00751036  RH  045%=      5-min Rain = 0
KCO1 130422Z 11014KT 08/M04 A3017 RMK A01 T00751036  RH  045%=      5-min Rain = 0
KCO1 130423Z 11016KT 08/M04 A3017 RMK A01 T00751036  RH  045%=      5-min Rain = 0
KCO1 130424Z 11015KT 08/M04 A3017 RMK A01 T00751036  RH  045%=      5-min Rain = 0
KCO1 130425Z 11013KT 08/M04 A3017 RMK A01 T00751036  RH  045%=      5-min Rain = 0
KCO1 130426Z 11014KT 08/M04 A3017 RMK A01 T00751036  RH  045%=      5-min Rain = 0
KCO1 130427Z 11016KT 07/M04 A3017 RMK A01 T00741036  RH  045%=      5-min Rain = 0
KCO1 130428Z 11015KT 07/M04 A3017 RMK A01 T00741036  RH  045%=      5-min Rain = 0
KCO1 130429Z 11014G19KT 07/M04 A3017 RMK A01 T00741036  RH  045%=      5-min Rain = 0
KCO1 130430Z 11017KT 07/M04 A3017 RMK A01 T00741036  RH  045%=      5-min Rain = 0
KCO1 130431Z 11016KT 07/M04 A3017 RMK A01 T00741036  RH  045%=      5-min Rain = 0
KCO1 130432Z 12014KT 07/M04 A3017 RMK A01 T00741036  RH  046%=      5-min Rain = 0
KCO1 130433Z 12017G22KT 07/M04 A3017 RMK A01 T00741036  RH  045%=      5-min Rain = 0
KCO1 130434Z 11014KT 07/M04 A3017 RMK A01 T00741036  RH  046%=      5-min Rain = 0
KCO1 130435Z 12016KT 07/M04 A3016 RMK A01 T00741036  RH  046%=      5-min Rain = 0
KCO1 130436Z 12017KT 07/M04 A3017 RMK A01 T00731036  RH  046%=      5-min Rain = 0
KCO1 130437Z 12016KT 07/M04 A3017 RMK A01 T00731036  RH  046%=      5-min Rain = 0
KCO1 130438Z 11018KT 07/M04 A3017 RMK A01 T00731036  RH  046%=      5-min Rain = 0
KCO1 130439Z 11016KT 07/M04 A3016 RMK A01 T00731036  RH  046%=      5-min Rain = 0
KCO1 130440Z 12017KT 07/M04 A3016 RMK A01 T00731036  RH  046%=      5-min Rain = 0
KCO1 130441Z 11017KT 07/M04 A3016 RMK A01 T00731036  RH  046%=      5-min Rain = 0
KCO1 130442Z 11014KT 07/M04 A3016 RMK A01 T00731036  RH  046%=      5-min Rain = 0
KCO1 130443Z 12015KT 07/M04 A3016 RMK A01 T00721037  RH  046%=      5-min Rain = 0
KCO1 130444Z 12016KT 07/M04 A3016 RMK A01 T00711036  RH  046%=      5-min Rain = 0
KCO1 130445Z 12017KT 07/M04 A3016 RMK A01 T00711036  RH  046%=      5-min Rain = 0
KCO1 130446Z 12015KT 07/M04 A3016 RMK A01 T00711036  RH  046%=      5-min Rain = 0
KCO1 130447Z 11015KT 07/M04 A3016 RMK A01 T00711036  RH  046%=      5-min Rain = 0
KCO1 130448Z 12016KT 07/M04 A3016 RMK A01 T00711037  RH  046%=      5-min Rain = 0
KCO1 130449Z 11015KT 07/M04 A3016 RMK A01 T00711036  RH  046%=      5-min Rain = 0
KCO1 130450Z 11016KT 07/M04 A3016 RMK A01 T00711036  RH  046%=      5-min Rain = 0
KCO1 130451Z 11014KT 07/M04 A3016 RMK A01 T00701037  RH  047%=      5-min Rain = 0
KCO1 130452Z 11015KT 07/M04 A3016 RMK A01 T00701037  RH  047%=      5-min Rain = 0
KCO1 130453Z 11014KT 07/M04 A3016 RMK A01 T00701037  RH  047%=      5-min Rain = 0
KCO1 130454Z 11015KT 07/M04 A3016 RMK A01 T00691037  RH  047%=      5-min Rain = 0
KCO1 130455Z 11015KT 07/M04 A3016 RMK A01 T00691036  RH  047%=      5-min Rain = 0
KCO1 130456Z 11014KT 07/M04 A3016 RMK A01 T00691037  RH  047%=      5-min Rain = 0
KCO1 130457Z 11015KT 07/M04 A3016 RMK A01 T00691037  RH  047%=      5-min Rain = 0
KCO1 130458Z 11015KT 07/M04 A3016 RMK A01 T00681037  RH  047%=      5-min Rain = 0
KCO1 130459Z 11015KT 07/M04 A3016 RMK A01 T00681037  RH  047%=      5-min Rain = 0
KCO1 130500Z 11016KT 07/M04 A3016 RMK A01 T00681037  RH  047%=      5-min Rain = 0
KCO1 130501Z 11015G20KT 07/M04 A3016 RMK A01 T00681037  RH  047%=      5-min Rain = 0
KCO1 130502Z 11016KT 07/M04 A3016 RMK A01 T00681036  RH  047%=      5-min Rain = 0
KCO1 130503Z 11015KT 07/M04 A3016 RMK A01 T00681037  RH  047%=      5-min Rain = 0
KCO1 130504Z 11016KT 07/M04 A3016 RMK A01 T00681036  RH  047%=      5-min Rain = 0
KCO1 130505Z 11013KT 07/M04 A3016 RMK A01 T00671037  RH  047%=      5-min Rain = 0
KCO1 130506Z 11014KT 07/M04 A3016 RMK A01 T00671037  RH  048%=      5-min Rain = 0
KCO1 130507Z 11016KT 07/M04 A3016 RMK A01 T00671036  RH  048%=      5-min Rain = 0
KCO1 130508Z 11014KT 07/M04 A3016 RMK A01 T00671036  RH  048%=      5-min Rain = 0
KCO1 130509Z 11016KT 07/M04 A3016 RMK A01 T00671037  RH  048%=      5-min Rain = 0
KCO1 130510Z 11017KT 07/M04 A3016 RMK A01 T00671036  RH  048%=      5-min Rain = 0
KCO1 130511Z 12017KT 07/M04 A3016 RMK A01 T00671036  RH  048%=      5-min Rain = 0
KCO1 130512Z 11014KT 07/M04 A3016 RMK A01 T00671036  RH  048%=      5-min Rain = 0
KCO1 130513Z 11015KT 07/M04 A3016 RMK A01 T00661037  RH  048%=      5-min Rain = 0
KCO1 130514Z 11012KT 07/M04 A3016 RMK A01 T00661037  RH  048%=      5-min Rain = 0
KCO1 130515Z 11016KT 07/M04 A3016 RMK A01 T00651037  RH  048%=      5-min Rain = 0
KCO1 130516Z 11014KT 07/M04 A3016 RMK A01 T00651036  RH  048%=      5-min Rain = 0
KCO1 130517Z 12016KT 07/M04 A3016 RMK A01 T00651036  RH  048%=      5-min Rain = 0
KCO1 130518Z 11014KT 07/M04 A3016 RMK A01 T00651036  RH  048%=      5-min Rain = 0
KCO1 130519Z 11015KT 07/M04 A3016 RMK A01 T00651036  RH  048%=      5-min Rain = 0
KCO1 130520Z 11016KT 07/M04 A3016 RMK A01 T00651037  RH  048%=      5-min Rain = 0
KCO1 130521Z 11014KT 07/M04 A3016 RMK A01 T00651036  RH  048%=      5-min Rain = 0
KCO1 130522Z 11014KT 07/M04 A3016 RMK A01 T00651036  RH  048%=      5-min Rain = 0
KCO1 130523Z 12016KT 07/M04 A3016 RMK A01 T00651037  RH  048%=      5-min Rain = 0
KCO1 130524Z 11016KT 07/M04 A3016 RMK A01 T00651036  RH  048%=      5-min Rain = 0
KCO1 130525Z 11014KT 07/M04 A3016 RMK A01 T00651036  RH  048%=      5-min Rain = 0
KCO1 130526Z 11017KT 06/M04 A3016 RMK A01 T00641037  RH  048%=      5-min Rain = 0
KCO1 130527Z 11017KT 07/M04 A3016 RMK A01 T00651036  RH  049%=      5-min Rain = 0
KCO1 130528Z 11017KT 06/M04 A3016 RMK A01 T00641036  RH  049%=      5-min Rain = 0
KCO1 130529Z 12016KT 07/M04 A3016 RMK A01 T00651036  RH  049%=      5-min Rain = 0
KCO1 130530Z 11015KT 07/M04 A3016 RMK A01 T00651036  RH  048%=      5-min Rain = 0
KCO1 130531Z 11015KT 06/M04 A3016 RMK A01 T00641036  RH  048%=      5-min Rain = 0
KCO1 130532Z 12014KT 06/M04 A3016 RMK A01 T00641036  RH  048%=      5-min Rain = 0
KCO1 130533Z 12014KT 06/M04 A3016 RMK A01 T00641037  RH  049%=      5-min Rain = 0
KCO1 130534Z 11013KT 06/M04 A3016 RMK A01 T00641036  RH  049%=      5-min Rain = 0
KCO1 130535Z 11014KT 06/M04 A3016 RMK A01 T00641037  RH  049%=      5-min Rain = 0
KCO1 130536Z 11014KT 06/M04 A3016 RMK A01 T00631037  RH  049%=      5-min Rain = 0
KCO1 130537Z 11013KT 06/M04 A3016 RMK A01 T00631037  RH  049%=      5-min Rain = 0
KCO1 130538Z 11013KT 06/M04 A3016 RMK A01 T00631037  RH  049%=      5-min Rain = 0
KCO1 130539Z 11014KT 06/M04 A3016 RMK A01 T00631037  RH  049%=      5-min Rain = 0
KCO1 130540Z 12012KT 06/M04 A3016 RMK A01 T00631036  RH  049%=      5-min Rain = 0
KCO1 130541Z 11012KT 06/M04 A3016 RMK A01 T00621037  RH  049%=      5-min Rain = 0
KCO1 130542Z 12014KT 06/M04 A3016 RMK A01 T00621037  RH  049%=      5-min Rain = 0
KCO1 130543Z 11015KT 06/M04 A3016 RMK A01 T00621037  RH  049%=      5-min Rain = 0
KCO1 130544Z 11013KT 06/M04 A3016 RMK A01 T00621037  RH  049%=      5-min Rain = 0
KCO1 130545Z 12014KT 06/M04 A3016 RMK A01 T00621037  RH  049%=      5-min Rain = 0
KCO1 130546Z 11014KT 06/M04 A3016 RMK A01 T00621037  RH  049%=      5-min Rain = 0
KCO1 130547Z 11014KT 06/M04 A3016 RMK A01 T00621037  RH  049%=      5-min Rain = 0
KCO1 130548Z 11014KT 06/M04 A3016 RMK A01 T00621037  RH  049%=      5-min Rain = 0
KCO1 130549Z 12015KT 06/M04 A3016 RMK A01 T00621037  RH  049%=      5-min Rain = 0
KCO1 130550Z 12013KT 06/M04 A3016 RMK A01 T00611037  RH  049%=      5-min Rain = 0
KCO1 130551Z 12015KT 06/M04 A3016 RMK A01 T00611037  RH  049%=      5-min Rain = 0
KCO1 130552Z 12014KT 06/M04 A3016 RMK A01 T00611037  RH  049%=      5-min Rain = 0
KCO1 130553Z 11012KT 06/M04 A3016 RMK A01 T00611037  RH  049%=      5-min Rain = 0
KCO1 130554Z 11015KT 06/M04 A3016 RMK A01 T00611037  RH  049%=      5-min Rain = 0
KCO1 130555Z 12015KT 06/M04 A3016 RMK A01 T00611037  RH  050%=      5-min Rain = 0
KCO1 130556Z 12012KT 06/M04 A3016 RMK A01 T00611037  RH  050%=      5-min Rain = 0
KCO1 130557Z 12014KT 06/M04 A3016 RMK A01 T00611037  RH  050%=      5-min Rain = 0
KCO1 130558Z 11014KT 06/M04 A3016 RMK A01 T00601037  RH  050%=      5-min Rain = 0
KCO1 130559Z 12015KT 06/M04 A3016 RMK A01 T00601037  RH  050%=      5-min Rain = 0

Page generated in 0.0771 seconds.